Observation data for Throckmorton on 05/24/2020      Previous  Date  Next       Current Mesonet Observations  Soil Data  Daily Summary Page  Observations in Plain Language
KTH1 240500Z 07004KT 17/17 A2987 RMK A01 T01740170  RH  098%=      5-min Rain = 0
KTH1 240501Z 07004KT 17/17 A2987 RMK A01 T01740170  RH  098%=      5-min Rain = 0
KTH1 240502Z 06004KT 17/17 A2987 RMK A01 T01740170  RH  098%=      5-min Rain = 0
KTH1 240503Z 08005KT 17/17 A2987 RMK A01 T01740171  RH  098%=      5-min Rain = 0
KTH1 240504Z 07005KT 17/17 A2986 RMK A01 T01740171  RH  098%=      5-min Rain = 0
KTH1 240505Z 07005KT 17/17 A2986 RMK A01 T01740171  RH  098%=      5-min Rain = 0
KTH1 240506Z 06006KT 18/17 A2986 RMK A01 T01750172  RH  098%=      5-min Rain = 0
KTH1 240507Z 05006KT 17/17 A2985 RMK A01 T01740172  RH  098%=      5-min Rain = 0
KTH1 240508Z 04005KT 17/17 A2985 RMK A01 T01740171  RH  098%=      5-min Rain = 0
KTH1 240509Z 04006KT 17/17 A2985 RMK A01 T01730170  RH  098%=      5-min Rain = 0
KTH1 240510Z 03007KT 17/17 A2985 RMK A01 T01740170  RH  098%=      5-min Rain = 0
KTH1 240511Z 03006KT 17/17 A2985 RMK A01 T01740169  RH  097%=      5-min Rain = 0
KTH1 240512Z 02006KT 17/17 A2985 RMK A01 T01740168  RH  096%=      5-min Rain = 0
KTH1 240513Z 03004KT 17/17 A2985 RMK A01 T01740167  RH  096%=      5-min Rain = 0
KTH1 240514Z 02005KT 17/17 A2985 RMK A01 T01740167  RH  096%=      5-min Rain = 0
KTH1 240515Z 02003KT 17/17 A2985 RMK A01 T01740167  RH  095%=      5-min Rain = 0
KTH1 240516Z 04004KT 18/17 A2985 RMK A01 T01750167  RH  095%=      5-min Rain = 0
KTH1 240517Z 05002KT 18/17 A2985 RMK A01 T01750167  RH  095%=      5-min Rain = 0
KTH1 240518Z 04004KT 17/17 A2985 RMK A01 T01740167  RH  095%=      5-min Rain = 0
KTH1 240519Z 05004KT 17/17 A2985 RMK A01 T01740166  RH  095%=      5-min Rain = 0
KTH1 240520Z 05004KT 18/17 A2985 RMK A01 T01750166  RH  095%=      5-min Rain = 0
KTH1 240521Z 09003KT 18/17 A2986 RMK A01 T01750166  RH  094%=      5-min Rain = 0
KTH1 240522Z 08004KT 18/17 A2986 RMK A01 T01760166  RH  094%=      5-min Rain = 0
KTH1 240523Z 09003KT 18/17 A2986 RMK A01 T01760166  RH  094%=      5-min Rain = 0
KTH1 240524Z 11002KT 18/17 A2986 RMK A01 T01760167  RH  094%=      5-min Rain = 0
KTH1 240525Z 09003KT 18/17 A2986 RMK A01 T01760168  RH  095%=      5-min Rain = 0
KTH1 240526Z 11005KT 18/17 A2986 RMK A01 T01760166  RH  094%=      5-min Rain = 0
KTH1 240527Z 10005KT 18/17 A2985 RMK A01 T01770167  RH  094%=      5-min Rain = 0
KTH1 240528Z 10006KT 18/17 A2985 RMK A01 T01770168  RH  095%=      5-min Rain = 0
KTH1 240529Z 09007KT 18/17 A2984 RMK A01 T01760168  RH  095%=      5-min Rain = 0
KTH1 240530Z 10007KT 18/17 A2984 RMK A01 T01760168  RH  095%=      5-min Rain = 0
KTH1 240531Z 10005KT 18/17 A2984 RMK A01 T01760168  RH  095%=      5-min Rain = 0
KTH1 240532Z 11004KT 18/17 A2985 RMK A01 T01760168  RH  095%=      5-min Rain = 0
KTH1 240533Z 12002KT 18/17 A2986 RMK A01 T01760168  RH  095%=      5-min Rain = 0
KTH1 240534Z 11002KT 18/17 A2986 RMK A01 T01760168  RH  095%=      5-min Rain = 0
KTH1 240535Z 14001KT 18/17 A2986 RMK A01 T01750167  RH  095%=      5-min Rain = 0
KTH1 240536Z 13000KT 18/17 A2987 RMK A01 T01750167  RH  095%=      5-min Rain = 0
KTH1 240537Z 29000KT 18/17 A2987 RMK A01 T01750168  RH  095%=      5-min Rain = 0
KTH1 240538Z 04001KT 18/17 A2987 RMK A01 T01750168  RH  095%=      5-min Rain = 0
KTH1 240539Z 06000KT 18/17 A2987 RMK A01 T01750167  RH  095%=      5-min Rain = 0
KTH1 240540Z 04001KT 18/17 A2987 RMK A01 T01750168  RH  095%=      5-min Rain = 0
KTH1 240541Z 05002KT 18/17 A2987 RMK A01 T01750168  RH  095%=      5-min Rain = 0
KTH1 240542Z 05003KT 18/17 A2987 RMK A01 T01750166  RH  094%=      5-min Rain = 0
KTH1 240543Z 06003KT 18/17 A2987 RMK A01 T01750166  RH  094%=      5-min Rain = 0
KTH1 240544Z 08005KT 18/17 A2986 RMK A01 T01760166  RH  094%=      5-min Rain = 0
KTH1 240545Z 09006KT 18/17 A2986 RMK A01 T01770166  RH  093%=      5-min Rain = 0
KTH1 240546Z 10005KT 18/17 A2986 RMK A01 T01780167  RH  093%=      5-min Rain = 0
KTH1 240547Z 10008KT 18/17 A2986 RMK A01 T01790168  RH  093%=      5-min Rain = 0
KTH1 240548Z 10008KT 18/17 A2986 RMK A01 T01790168  RH  093%=      5-min Rain = 0
KTH1 240549Z 11008KT 18/17 A2986 RMK A01 T01790168  RH  093%=      5-min Rain = 0
KTH1 240550Z 10007KT 18/17 A2986 RMK A01 T01790168  RH  093%=      5-min Rain = 0
KTH1 240551Z 11006KT 18/17 A2986 RMK A01 T01790167  RH  093%=      5-min Rain = 0
KTH1 240552Z 11007KT 18/17 A2986 RMK A01 T01790166  RH  092%=      5-min Rain = 0
KTH1 240553Z 11006KT 18/17 A2986 RMK A01 T01800166  RH  092%=      5-min Rain = 0
KTH1 240554Z 11005KT 18/17 A2986 RMK A01 T01800166  RH  091%=      5-min Rain = 0
KTH1 240555Z 11006KT 18/17 A2986 RMK A01 T01800166  RH  091%=      5-min Rain = 0
KTH1 240556Z 12005KT 18/17 A2986 RMK A01 T01800166  RH  091%=      5-min Rain = 0
KTH1 240557Z 12007KT 18/17 A2986 RMK A01 T01810167  RH  091%=      5-min Rain = 0
KTH1 240558Z 11008KT 18/17 A2986 RMK A01 T01800165  RH  091%=      5-min Rain = 0
KTH1 240559Z 11008KT 18/17 A2986 RMK A01 T01810165  RH  091%=      5-min Rain = 0
KTH1 240600Z 10008KT 18/16 A2985 RMK A01 T01800164  RH  090%=      5-min Rain = 0
KTH1 240601Z 10007KT 18/16 A2985 RMK A01 T01810164  RH  090%=      5-min Rain = 0
KTH1 240602Z 10006KT 18/16 A2985 RMK A01 T01810164  RH  090%=      5-min Rain = 0
KTH1 240603Z 11006KT 18/17 A2985 RMK A01 T01810165  RH  091%=      5-min Rain = 0
KTH1 240604Z 11007KT 18/17 A2985 RMK A01 T01810166  RH  091%=      5-min Rain = 0
KTH1 240605Z 12009KT 18/17 A2985 RMK A01 T01800166  RH  091%=      5-min Rain = 0
KTH1 240606Z 12009KT 18/17 A2985 RMK A01 T01800165  RH  091%=      5-min Rain = 0
KTH1 240607Z 12008KT 18/17 A2985 RMK A01 T01800166  RH  091%=      5-min Rain = 0
KTH1 240608Z 11009KT 18/17 A2985 RMK A01 T01800165  RH  091%=      5-min Rain = 0
KTH1 240609Z 11009KT 18/16 A2985 RMK A01 T01800164  RH  091%=      5-min Rain = 0
KTH1 240610Z 11009KT 18/16 A2985 RMK A01 T01800164  RH  090%=      5-min Rain = 0
KTH1 240611Z 11007KT 18/16 A2985 RMK A01 T01810163  RH  089%=      5-min Rain = 0
KTH1 240612Z 11006KT 18/16 A2985 RMK A01 T01820164  RH  089%=      5-min Rain = 0
KTH1 240613Z 11007KT 18/17 A2985 RMK A01 T01820165  RH  090%=      5-min Rain = 0
KTH1 240614Z 11008KT 18/17 A2985 RMK A01 T01820165  RH  090%=      5-min Rain = 0
KTH1 240615Z 11006KT 18/17 A2985 RMK A01 T01810166  RH  091%=      5-min Rain = 0
KTH1 240616Z 12007KT 18/17 A2985 RMK A01 T01810166  RH  091%=      5-min Rain = 0
KTH1 240617Z 11008KT 18/17 A2985 RMK A01 T01800166  RH  091%=      5-min Rain = 0
KTH1 240618Z 12008KT 18/17 A2985 RMK A01 T01800166  RH  091%=      5-min Rain = 0
KTH1 240619Z 12008KT 18/17 A2984 RMK A01 T01800166  RH  092%=      5-min Rain = 0
KTH1 240620Z 12008KT 18/17 A2984 RMK A01 T01800166  RH  092%=      5-min Rain = 0
KTH1 240621Z 12007KT 18/17 A2984 RMK A01 T01790165  RH  091%=      5-min Rain = 0
KTH1 240622Z 11007KT 18/17 A2984 RMK A01 T01800165  RH  091%=      5-min Rain = 0
KTH1 240623Z 11007KT 18/17 A2983 RMK A01 T01800165  RH  091%=      5-min Rain = 0
KTH1 240624Z 11007KT 18/16 A2983 RMK A01 T01810164  RH  090%=      5-min Rain = 0
KTH1 240625Z 11006KT 18/16 A2983 RMK A01 T01810164  RH  090%=      5-min Rain = 0
KTH1 240626Z 10005KT 18/16 A2983 RMK A01 T01820164  RH  089%=      5-min Rain = 0
KTH1 240627Z 10004KT 18/16 A2983 RMK A01 T01820164  RH  089%=      5-min Rain = 0
KTH1 240628Z 10005KT 18/16 A2983 RMK A01 T01820163  RH  089%=      5-min Rain = 0
KTH1 240629Z 09004KT 18/16 A2982 RMK A01 T01820163  RH  089%=      5-min Rain = 0
KTH1 240630Z 09003KT 18/16 A2982 RMK A01 T01820164  RH  089%=      5-min Rain = 0
KTH1 240631Z 08003KT 18/17 A2982 RMK A01 T01830165  RH  089%=      5-min Rain = 0
KTH1 240632Z 09004KT 18/17 A2982 RMK A01 T01820165  RH  090%=      5-min Rain = 0
KTH1 240633Z 09004KT 18/17 A2981 RMK A01 T01820165  RH  090%=      5-min Rain = 0
KTH1 240634Z 09006KT 18/17 A2981 RMK A01 T01820165  RH  090%=      5-min Rain = 0
KTH1 240635Z 10006KT 18/16 A2981 RMK A01 T01820163  RH  089%=      5-min Rain = 0
KTH1 240636Z 10005KT 18/16 A2981 RMK A01 T01820164  RH  089%=      5-min Rain = 0
KTH1 240637Z 09005KT 18/17 A2981 RMK A01 T01830166  RH  089%=      5-min Rain = 0
KTH1 240638Z 08003KT 18/17 A298 RMK A01 T01830166  RH  090%=      5-min Rain = 0
KTH1 240639Z 08004KT 18/17 A298 RMK A01 T01830165  RH  089%=      5-min Rain = 0
KTH1 240640Z 07003KT 18/17 A298 RMK A01 T01830165  RH  089%=      5-min Rain = 0
KTH1 240641Z 07003KT 18/17 A298 RMK A01 T01830165  RH  089%=      5-min Rain = 0
KTH1 240642Z 07002KT 18/17 A298 RMK A01 T01830165  RH  089%=      5-min Rain = 0
KTH1 240643Z 08002KT 18/17 A298 RMK A01 T01830165  RH  090%=      5-min Rain = 0
KTH1 240644Z 04002KT 18/17 A298 RMK A01 T01820165  RH  090%=      5-min Rain = 0
KTH1 240645Z 05002KT 18/17 A298 RMK A01 T01820165  RH  090%=      5-min Rain = 0
KTH1 240646Z 07003KT 18/17 A298 RMK A01 T01820165  RH  090%=      5-min Rain = 0
KTH1 240647Z 08002KT 18/16 A298 RMK A01 T01820164  RH  089%=      5-min Rain = 0
KTH1 240648Z 08004KT 18/17 A298 RMK A01 T01820165  RH  090%=      5-min Rain = 0
KTH1 240649Z 09004KT 18/17 A298 RMK A01 T01820165  RH  090%=      5-min Rain = 0
KTH1 240650Z 10003KT 18/17 A298 RMK A01 T01820165  RH  090%=      5-min Rain = 0
KTH1 240651Z 10003KT 18/17 A298 RMK A01 T01830165  RH  090%=      5-min Rain = 0
KTH1 240652Z 12004KT 18/17 A2979 RMK A01 T01830165  RH  089%=      5-min Rain = 0
KTH1 240653Z 12003KT 18/16 A2979 RMK A01 T01830164  RH  089%=      5-min Rain = 0
KTH1 240654Z 12003KT 18/17 A2979 RMK A01 T01830165  RH  090%=      5-min Rain = 0
KTH1 240655Z 10003KT 18/17 A2979 RMK A01 T01830166  RH  090%=      5-min Rain = 0
KTH1 240656Z 11003KT 18/17 A2979 RMK A01 T01830165  RH  089%=      5-min Rain = 0
KTH1 240657Z 10003KT 18/16 A2979 RMK A01 T01830163  RH  088%=      5-min Rain = 0
KTH1 240658Z 11003KT 18/16 A2979 RMK A01 T01840163  RH  088%=      5-min Rain = 0
KTH1 240659Z 11003KT 18/16 A2979 RMK A01 T01840164  RH  088%=      5-min Rain = 0
KTH1 240700Z 11003KT 19/16 A298 RMK A01 T01850163  RH  087%=      5-min Rain = 0
KTH1 240701Z 11003KT 19/16 A298 RMK A01 T01850164  RH  087%=      5-min Rain = 0
KTH1 240702Z 09003KT 19/16 A298 RMK A01 T01850164  RH  087%=      5-min Rain = 0
KTH1 240703Z 09003KT 19/16 A298 RMK A01 T01850164  RH  088%=      5-min Rain = 0
KTH1 240704Z 09002KT 19/16 A298 RMK A01 T01850163  RH  087%=      5-min Rain = 0
KTH1 240705Z 09001KT 19/16 A298 RMK A01 T01860163  RH  087%=      5-min Rain = 0
KTH1 240706Z 08002KT 19/16 A298 RMK A01 T01870164  RH  087%=      5-min Rain = 0
KTH1 240707Z 10002KT 19/17 A298 RMK A01 T01870165  RH  087%=      5-min Rain = 0
KTH1 240708Z 10002KT 19/17 A298 RMK A01 T01870167  RH  088%=      5-min Rain = 0
KTH1 240709Z 05000KT 19/17 A298 RMK A01 T01870167  RH  088%=      5-min Rain = 0
KTH1 240710Z 12000KT 19/17 A298 RMK A01 T01870169  RH  089%=      5-min Rain = 0
KTH1 240711Z 00001KT 19/17 A298 RMK A01 T01870167  RH  088%=      5-min Rain = 0
KTH1 240712Z 03001KT 19/17 A298 RMK A01 T01870165  RH  087%=      5-min Rain = 0
KTH1 240713Z 07000KT 19/17 A298 RMK A01 T01870167  RH  088%=      5-min Rain = 0
KTH1 240714Z 05000KT 19/17 A298 RMK A01 T01870167  RH  088%=      5-min Rain = 0
KTH1 240715Z 00000KT 19/17 A298 RMK A01 T01870169  RH  089%=      5-min Rain = 0
KTH1 240716Z 00000KT 19/17 A298 RMK A01 T01870169  RH  089%=      5-min Rain = 0
KTH1 240717Z 00000KT 19/17 A2979 RMK A01 T01870168  RH  089%=      5-min Rain = 0
KTH1 240718Z 12001KT 19/17 A2979 RMK A01 T01870168  RH  089%=      5-min Rain = 0
KTH1 240719Z 10001KT 19/17 A2979 RMK A01 T01860168  RH  089%=      5-min Rain = 0
KTH1 240720Z 11001KT 19/17 A2979 RMK A01 T01860168  RH  090%=      5-min Rain = 0
KTH1 240721Z 13003KT 19/17 A2979 RMK A01 T01850167  RH  089%=      5-min Rain = 0
KTH1 240722Z 13003KT 19/17 A2979 RMK A01 T01850167  RH  089%=      5-min Rain = 0
KTH1 240723Z 14004KT 19/17 A2979 RMK A01 T01850169  RH  090%=      5-min Rain = 0
KTH1 240724Z 14004KT 19/17 A2979 RMK A01 T01860170  RH  091%=      5-min Rain = 0
KTH1 240725Z 14005KT 19/17 A298 RMK A01 T01850171  RH  091%=      5-min Rain = 0
KTH1 240726Z 14005KT 19/17 A298 RMK A01 T01850170  RH  091%=      5-min Rain = 0
KTH1 240727Z 13005KT 19/17 A298 RMK A01 T01850170  RH  091%=      5-min Rain = 0
KTH1 240728Z 13006KT 18/17 A298 RMK A01 T01840170  RH  091%=      5-min Rain = 0
KTH1 240729Z 13005KT 18/17 A298 RMK A01 T01840169  RH  091%=      5-min Rain = 0
KTH1 240730Z 14004KT 18/17 A298 RMK A01 T01840168  RH  090%=      5-min Rain = 0
KTH1 240731Z 15004KT 18/17 A298 RMK A01 T01840167  RH  090%=      5-min Rain = 0
KTH1 240732Z 15004KT 18/17 A298 RMK A01 T01840166  RH  089%=      5-min Rain = 0
KTH1 240733Z 16004KT 18/17 A298 RMK A01 T01840165  RH  088%=      5-min Rain = 0
KTH1 240734Z 15002KT 18/17 A298 RMK A01 T01840165  RH  088%=      5-min Rain = 0
KTH1 240735Z 15003KT 19/17 A298 RMK A01 T01850165  RH  088%=      5-min Rain = 0
KTH1 240736Z 14003KT 19/17 A298 RMK A01 T01850166  RH  088%=      5-min Rain = 0
KTH1 240737Z 14004KT 19/17 A298 RMK A01 T01850166  RH  088%=      5-min Rain = 0
KTH1 240738Z 15003KT 19/17 A298 RMK A01 T01860166  RH  088%=      5-min Rain = 0
KTH1 240739Z 14003KT 19/17 A298 RMK A01 T01850166  RH  088%=      5-min Rain = 0
KTH1 240740Z 14005KT 19/17 A298 RMK A01 T01860166  RH  088%=      5-min Rain = 0
KTH1 240741Z 15005KT 19/17 A298 RMK A01 T01860166  RH  088%=      5-min Rain = 0
KTH1 240742Z 14004KT 19/17 A298 RMK A01 T01870165  RH  087%=      5-min Rain = 0
KTH1 240743Z 13005KT 19/17 A2981 RMK A01 T01870166  RH  087%=      5-min Rain = 0
KTH1 240744Z 12005KT 19/17 A2981 RMK A01 T01880166  RH  087%=      5-min Rain = 0
KTH1 240745Z 12005KT 19/17 A2981 RMK A01 T01880165  RH  087%=      5-min Rain = 0
KTH1 240746Z 13005KT 19/17 A2981 RMK A01 T01890167  RH  087%=      5-min Rain = 0
KTH1 240747Z 13006KT 19/17 A2981 RMK A01 T01890165  RH  086%=      5-min Rain = 0
KTH1 240748Z 14006KT 19/17 A2981 RMK A01 T01890165  RH  086%=      5-min Rain = 0
KTH1 240749Z 14007KT 19/17 A2981 RMK A01 T01900165  RH  085%=      5-min Rain = 0
KTH1 240750Z 14006KT 19/16 A2981 RMK A01 T01900164  RH  085%=      5-min Rain = 0
KTH1 240751Z 14007KT 19/17 A2981 RMK A01 T01900165  RH  085%=      5-min Rain = 0
KTH1 240752Z 14007KT 19/17 A2981 RMK A01 T01900165  RH  086%=      5-min Rain = 0
KTH1 240753Z 13007KT 19/17 A2981 RMK A01 T01900166  RH  086%=      5-min Rain = 0
KTH1 240754Z 14007KT 19/17 A2981 RMK A01 T01890166  RH  086%=      5-min Rain = 0
KTH1 240755Z 14008KT 19/17 A2981 RMK A01 T01890166  RH  087%=      5-min Rain = 0
KTH1 240756Z 14008KT 19/17 A2981 RMK A01 T01880166  RH  087%=      5-min Rain = 0
KTH1 240757Z 14009KT 19/17 A2981 RMK A01 T01880166  RH  087%=      5-min Rain = 0
KTH1 240758Z 14008KT 19/17 A2981 RMK A01 T01880167  RH  087%=      5-min Rain = 0
KTH1 240759Z 15008KT 19/17 A2981 RMK A01 T01870167  RH  088%=      5-min Rain = 0
KTH1 240800Z 15008KT 19/17 A2981 RMK A01 T01870167  RH  088%=      5-min Rain = 0
KTH1 240801Z 15008KT 19/17 A2981 RMK A01 T01860166  RH  088%=      5-min Rain = 0
KTH1 240802Z 16006KT 19/17 A2981 RMK A01 T01860167  RH  088%=      5-min Rain = 0
KTH1 240803Z 16007KT 19/17 A2981 RMK A01 T01860167  RH  089%=      5-min Rain = 0
KTH1 240804Z 16007KT 19/17 A2981 RMK A01 T01850167  RH  089%=      5-min Rain = 0
KTH1 240805Z 16007KT 19/17 A2981 RMK A01 T01850167  RH  089%=      5-min Rain = 0
KTH1 240806Z 16007KT 19/17 A2981 RMK A01 T01850167  RH  090%=      5-min Rain = 0
KTH1 240807Z 16008KT 18/17 A2981 RMK A01 T01840168  RH  090%=      5-min Rain = 0
KTH1 240808Z 16008KT 18/17 A2981 RMK A01 T01840167  RH  090%=      5-min Rain = 0
KTH1 240809Z 16006KT 18/17 A2981 RMK A01 T01840168  RH  090%=      5-min Rain = 0
KTH1 240810Z 17007KT 18/17 A2981 RMK A01 T01840168  RH  091%=      5-min Rain = 0
KTH1 240811Z 17007KT 18/17 A2981 RMK A01 T01830168  RH  091%=      5-min Rain = 0
KTH1 240812Z 17007KT 18/17 A2981 RMK A01 T01830168  RH  091%=      5-min Rain = 0
KTH1 240813Z 17008KT 18/17 A2981 RMK A01 T01830168  RH  091%=      5-min Rain = 0
KTH1 240814Z 17007KT 18/17 A2981 RMK A01 T01830168  RH  091%=      5-min Rain = 0
KTH1 240815Z 17008KT 18/17 A2982 RMK A01 T01830169  RH  091%=      5-min Rain = 0
KTH1 240816Z 16008KT 18/17 A2982 RMK A01 T01820168  RH  091%=      5-min Rain = 0
KTH1 240817Z 17009KT 18/17 A2982 RMK A01 T01820168  RH  092%=      5-min Rain = 0
KTH1 240818Z 16009KT 18/17 A2982 RMK A01 T01820168  RH  092%=      5-min Rain = 0
KTH1 240819Z 16009KT 18/17 A2982 RMK A01 T01820168  RH  092%=      5-min Rain = 0
KTH1 240820Z 16008KT 18/17 A2982 RMK A01 T01820168  RH  092%=      5-min Rain = 0
KTH1 240821Z 16010KT 18/17 A2982 RMK A01 T01820169  RH  092%=      5-min Rain = 0
KTH1 240822Z 16009KT 18/17 A2982 RMK A01 T01820168  RH  092%=      5-min Rain = 0
KTH1 240823Z 16010KT 18/17 A2981 RMK A01 T01820169  RH  092%=      5-min Rain = 0
KTH1 240824Z 16008KT 18/17 A2981 RMK A01 T01820169  RH  092%=      5-min Rain = 0
KTH1 240825Z 16009KT 18/17 A2981 RMK A01 T01810169  RH  093%=      5-min Rain = 0
KTH1 240826Z 17008KT 18/17 A2981 RMK A01 T01810169  RH  093%=      5-min Rain = 0
KTH1 240827Z 16008KT 18/17 A2981 RMK A01 T01810169  RH  093%=      5-min Rain = 0
KTH1 240828Z 16008G13KT 18/17 A2982 RMK A01 T01810170  RH  093%=      5-min Rain = 0
KTH1 240829Z 16011KT 18/17 A2982 RMK A01 T01810170  RH  093%=      5-min Rain = 0
KTH1 240830Z 16009KT 18/17 A2981 RMK A01 T01810170  RH  093%=      5-min Rain = 0
KTH1 240831Z 15009KT 18/17 A2982 RMK A01 T01810170  RH  093%=      5-min Rain = 0
KTH1 240832Z 15009KT 18/17 A2982 RMK A01 T01810171  RH  094%=      5-min Rain = 0
KTH1 240833Z 16008KT 18/17 A2982 RMK A01 T01810171  RH  094%=      5-min Rain = 0
KTH1 240834Z 16006KT 18/17 A2982 RMK A01 T01810171  RH  094%=      5-min Rain = 0
KTH1 240835Z 16007KT 18/17 A2982 RMK A01 T01810171  RH  094%=      5-min Rain = 0
KTH1 240836Z 16008KT 18/17 A2982 RMK A01 T01810171  RH  094%=      5-min Rain = 0
KTH1 240837Z 16008KT 18/17 A2982 RMK A01 T01810171  RH  094%=      5-min Rain = 0
KTH1 240838Z 15008KT 18/17 A2982 RMK A01 T01810171  RH  094%=      5-min Rain = 0
KTH1 240839Z 16007KT 18/17 A2982 RMK A01 T01810171  RH  094%=      5-min Rain = 0
KTH1 240840Z 16008KT 18/17 A2982 RMK A01 T01810171  RH  094%=      5-min Rain = 0
KTH1 240841Z 16009KT 18/17 A2982 RMK A01 T01810172  RH  094%=      5-min Rain = 0
KTH1 240842Z 16008KT 18/17 A2982 RMK A01 T01810172  RH  094%=      5-min Rain = 0
KTH1 240843Z 16008KT 18/17 A2982 RMK A01 T01810172  RH  094%=      5-min Rain = 0
KTH1 240844Z 15006KT 18/17 A2982 RMK A01 T01810172  RH  094%=      5-min Rain = 0
KTH1 240845Z 16007KT 18/17 A2982 RMK A01 T01810172  RH  094%=      5-min Rain = 0
KTH1 240846Z 16007KT 18/17 A2982 RMK A01 T01810172  RH  095%=      5-min Rain = 0
KTH1 240847Z 16007KT 18/17 A2982 RMK A01 T01800172  RH  095%=      5-min Rain = 0
KTH1 240848Z 16006KT 18/17 A2982 RMK A01 T01800172  RH  095%=      5-min Rain = 0
KTH1 240849Z 16006KT 18/17 A2982 RMK A01 T01800172  RH  095%=      5-min Rain = 0
KTH1 240850Z 16006KT 18/17 A2982 RMK A01 T01810172  RH  095%=      5-min Rain = 0
KTH1 240851Z 16007KT 18/17 A2982 RMK A01 T01800172  RH  095%=      5-min Rain = 0
KTH1 240852Z 15006KT 18/17 A2982 RMK A01 T01800172  RH  095%=      5-min Rain = 0
KTH1 240853Z 16006KT 18/17 A2982 RMK A01 T01800172  RH  095%=      5-min Rain = 0
KTH1 240854Z 16008KT 18/17 A2982 RMK A01 T01800172  RH  095%=      5-min Rain = 0
KTH1 240855Z 15007KT 18/17 A2982 RMK A01 T01800173  RH  095%=      5-min Rain = 0
KTH1 240856Z 15007KT 18/17 A2982 RMK A01 T01800173  RH  095%=      5-min Rain = 0
KTH1 240857Z 16006KT 18/17 A2982 RMK A01 T01800173  RH  096%=      5-min Rain = 0
KTH1 240858Z 16007KT 18/17 A2982 RMK A01 T01790172  RH  096%=      5-min Rain = 0
KTH1 240859Z 16008KT 18/17 A2982 RMK A01 T01790172  RH  096%=      5-min Rain = 0
KTH1 240900Z 16008KT 18/17 A2982 RMK A01 T01800172  RH  095%=      5-min Rain = 0
KTH1 240901Z 16007KT 18/17 A2982 RMK A01 T01800172  RH  095%=      5-min Rain = 0
KTH1 240902Z 16007KT 18/17 A2982 RMK A01 T01790172  RH  095%=      5-min Rain = 0
KTH1 240903Z 16008KT 18/17 A2982 RMK A01 T01800172  RH  095%=      5-min Rain = 0
KTH1 240904Z 16008KT 18/17 A2982 RMK A01 T01800172  RH  095%=      5-min Rain = 0
KTH1 240905Z 16006KT 18/17 A2982 RMK A01 T01800172  RH  096%=      5-min Rain = 0
KTH1 240906Z 16005KT 18/17 A2982 RMK A01 T01800173  RH  096%=      5-min Rain = 0
KTH1 240907Z 16006KT 18/17 A2982 RMK A01 T01790172  RH  096%=      5-min Rain = 0
KTH1 240908Z 16007KT 18/17 A2982 RMK A01 T01790172  RH  096%=      5-min Rain = 0
KTH1 240909Z 15006KT 18/17 A2982 RMK A01 T01790173  RH  096%=      5-min Rain = 0
KTH1 240910Z 16007KT 18/17 A2982 RMK A01 T01790173  RH  096%=      5-min Rain = 0
KTH1 240911Z 16007KT 18/17 A2982 RMK A01 T01790173  RH  096%=      5-min Rain = 0
KTH1 240912Z 16006KT 18/17 A2982 RMK A01 T01790173  RH  096%=      5-min Rain = 0
KTH1 240913Z 16006KT 18/17 A2982 RMK A01 T01790173  RH  096%=      5-min Rain = 0
KTH1 240914Z 17006KT 18/17 A2982 RMK A01 T01790173  RH  096%=      5-min Rain = 0
KTH1 240915Z 17006KT 18/17 A2983 RMK A01 T01790173  RH  096%=      5-min Rain = 0
KTH1 240916Z 15005KT 18/17 A2983 RMK A01 T01780173  RH  096%=      5-min Rain = 0
KTH1 240917Z 15006KT 18/17 A2983 RMK A01 T01780173  RH  097%=      5-min Rain = 0
KTH1 240918Z 16006KT 18/17 A2983 RMK A01 T01780173  RH  097%=      5-min Rain = 0
KTH1 240919Z 15007KT 18/17 A2982 RMK A01 T01780174  RH  097%=      5-min Rain = 0
KTH1 240920Z 15006KT 18/17 A2982 RMK A01 T01790174  RH  097%=      5-min Rain = 0
KTH1 240921Z 15006KT 18/17 A2982 RMK A01 T01780173  RH  097%=      5-min Rain = 0
KTH1 240922Z 15006KT 18/17 A2982 RMK A01 T01780174  RH  097%=      5-min Rain = 0
KTH1 240923Z 16005KT 18/17 A2983 RMK A01 T01780174  RH  097%=      5-min Rain = 0
KTH1 240924Z 15006KT 18/17 A2983 RMK A01 T01780174  RH  097%=      5-min Rain = 0
KTH1 240925Z 15006KT 18/17 A2983 RMK A01 T01780173  RH  097%=      5-min Rain = 0
KTH1 240926Z 15006KT 18/17 A2983 RMK A01 T01780173  RH  097%=      5-min Rain = 0
KTH1 240927Z 16006KT 18/17 A2983 RMK A01 T01770173  RH  097%=      5-min Rain = 0
KTH1 240928Z 16006KT 18/17 A2983 RMK A01 T01780174  RH  097%=      5-min Rain = 0
KTH1 240929Z 15005KT 18/17 A2983 RMK A01 T01780174  RH  097%=      5-min Rain = 0
KTH1 240930Z 16005KT 18/17 A2983 RMK A01 T01780174  RH  097%=      5-min Rain = 0
KTH1 240931Z 15005KT 18/17 A2983 RMK A01 T01780174  RH  097%=      5-min Rain = 0
KTH1 240932Z 15005KT 18/17 A2983 RMK A01 T01770174  RH  098%=      5-min Rain = 0
KTH1 240933Z 14005KT 18/17 A2983 RMK A01 T01780174  RH  098%=      5-min Rain = 0
KTH1 240934Z 15005KT 18/17 A2983 RMK A01 T01780174  RH  098%=      5-min Rain = 0
KTH1 240935Z 15005KT 18/17 A2983 RMK A01 T01780174  RH  098%=      5-min Rain = 0
KTH1 240936Z 15005KT 18/17 A2983 RMK A01 T01780174  RH  098%=      5-min Rain = 0
KTH1 240937Z 16004KT 18/17 A2983 RMK A01 T01780174  RH  098%=      5-min Rain = 0
KTH1 240938Z 15004KT 18/17 A2983 RMK A01 T01780174  RH  098%=      5-min Rain = 0
KTH1 240939Z 15007KT 18/17 A2983 RMK A01 T01780174  RH  098%=      5-min Rain = 0
KTH1 240940Z 15005KT 18/17 A2983 RMK A01 T01770173  RH  098%=      5-min Rain = 0
KTH1 240941Z 16005KT 18/17 A2983 RMK A01 T01770173  RH  098%=      5-min Rain = 0
KTH1 240942Z 15006KT 18/17 A2983 RMK A01 T01770174  RH  098%=      5-min Rain = 0
KTH1 240943Z 15006KT 18/17 A2983 RMK A01 T01770174  RH  098%=      5-min Rain = 0
KTH1 240944Z 16005KT 18/17 A2983 RMK A01 T01770174  RH  098%=      5-min Rain = 0
KTH1 240945Z 16005KT 18/17 A2983 RMK A01 T01770173  RH  098%=      5-min Rain = 0
KTH1 240946Z 16005KT 18/17 A2983 RMK A01 T01770174  RH  098%=      5-min Rain = 0
KTH1 240947Z 16004KT 18/17 A2983 RMK A01 T01780174  RH  098%=      5-min Rain = 0
KTH1 240948Z 16005KT 18/17 A2983 RMK A01 T01780174  RH  098%=      5-min Rain = 0
KTH1 240949Z 15005KT 18/17 A2983 RMK A01 T01780174  RH  097%=      5-min Rain = 0
KTH1 240950Z 15005KT 18/17 A2983 RMK A01 T01780174  RH  097%=      5-min Rain = 0
KTH1 240951Z 15005KT 18/17 A2983 RMK A01 T01780174  RH  098%=      5-min Rain = 0
KTH1 240952Z 15006KT 18/18 A2983 RMK A01 T01790175  RH  097%=      5-min Rain = 0
KTH1 240953Z 14005KT 18/18 A2983 RMK A01 T01790175  RH  097%=      5-min Rain = 0
KTH1 240954Z 15005KT 18/18 A2983 RMK A01 T01790175  RH  097%=      5-min Rain = 0
KTH1 240955Z 15004KT 18/18 A2983 RMK A01 T01790175  RH  097%=      5-min Rain = 0
KTH1 240956Z 15006KT 18/18 A2983 RMK A01 T01790175  RH  097%=      5-min Rain = 0
KTH1 240957Z 15005KT 18/18 A2983 RMK A01 T01790175  RH  097%=      5-min Rain = 0
KTH1 240958Z 15005KT 18/18 A2983 RMK A01 T01800175  RH  097%=      5-min Rain = 0
KTH1 240959Z 15006KT 18/18 A2983 RMK A01 T01800175  RH  097%=      5-min Rain = 0
KTH1 241000Z 15005KT 18/18 A2983 RMK A01 T01800175  RH  097%=      5-min Rain = 0
KTH1 241001Z 15005KT 18/18 A2983 RMK A01 T01800175  RH  097%=      5-min Rain = 0
KTH1 241002Z 16005KT 18/18 A2983 RMK A01 T01810175  RH  097%=      5-min Rain = 0
KTH1 241003Z 16004KT 18/18 A2983 RMK A01 T01810175  RH  097%=      5-min Rain = 0
KTH1 241004Z 15004KT 18/18 A2983 RMK A01 T01800175  RH  096%=      5-min Rain = 0
KTH1 241005Z 16005KT 18/18 A2983 RMK A01 T01810175  RH  096%=      5-min Rain = 0
KTH1 241006Z 16004KT 18/18 A2983 RMK A01 T01800175  RH  096%=      5-min Rain = 0
KTH1 241007Z 16005KT 18/18 A2983 RMK A01 T01800175  RH  097%=      5-min Rain = 0
KTH1 241008Z 16004KT 18/18 A2983 RMK A01 T01800175  RH  097%=      5-min Rain = 0
KTH1 241009Z 16005KT 18/18 A2983 RMK A01 T01800175  RH  097%=      5-min Rain = 0
KTH1 241010Z 15005KT 18/18 A2983 RMK A01 T01800175  RH  096%=      5-min Rain = 0
KTH1 241011Z 16004KT 18/18 A2983 RMK A01 T01810175  RH  096%=      5-min Rain = 0
KTH1 241012Z 16004KT 18/18 A2983 RMK A01 T01810175  RH  096%=      5-min Rain = 0
KTH1 241013Z 16004KT 18/17 A2983 RMK A01 T01800174  RH  096%=      5-min Rain = 0
KTH1 241014Z 16004KT 18/17 A2983 RMK A01 T01800174  RH  096%=      5-min Rain = 0
KTH1 241015Z 16003KT 18/17 A2983 RMK A01 T01800174  RH  096%=      5-min Rain = 0
KTH1 241016Z 17005KT 18/17 A2983 RMK A01 T01800174  RH  096%=      5-min Rain = 0
KTH1 241017Z 16004KT 18/17 A2983 RMK A01 T01800174  RH  096%=      5-min Rain = 0
KTH1 241018Z 16003KT 18/17 A2983 RMK A01 T01800174  RH  097%=      5-min Rain = 0
KTH1 241019Z 16004KT 18/17 A2983 RMK A01 T01790174  RH  097%=      5-min Rain = 0
KTH1 241020Z 16003KT 18/17 A2983 RMK A01 T01790174  RH  097%=      5-min Rain = 0
KTH1 241021Z 15003KT 18/17 A2983 RMK A01 T01790173  RH  097%=      5-min Rain = 0
KTH1 241022Z 16004KT 18/17 A2983 RMK A01 T01790174  RH  097%=      5-min Rain = 0
KTH1 241023Z 16004KT 18/17 A2983 RMK A01 T01790174  RH  097%=      5-min Rain = 0
KTH1 241024Z 15004KT 18/17 A2983 RMK A01 T01790174  RH  097%=      5-min Rain = 0
KTH1 241025Z 15004KT 18/17 A2983 RMK A01 T01790174  RH  097%=      5-min Rain = 0
KTH1 241026Z 15005KT 18/17 A2983 RMK A01 T01780173  RH  097%=      5-min Rain = 0
KTH1 241027Z 16005KT 18/17 A2983 RMK A01 T01780174  RH  097%=      5-min Rain = 0
KTH1 241028Z 15004KT 18/17 A2983 RMK A01 T01780173  RH  097%=      5-min Rain = 0
KTH1 241029Z 16003KT 18/17 A2983 RMK A01 T01780173  RH  097%=      5-min Rain = 0
KTH1 241030Z 16004KT 18/17 A2983 RMK A01 T01780174  RH  097%=      5-min Rain = 0
KTH1 241031Z 17004KT 18/17 A2984 RMK A01 T01780174  RH  097%=      5-min Rain = 0
KTH1 241032Z 16004KT 18/17 A2984 RMK A01 T01780174  RH  097%=      5-min Rain = 0
KTH1 241033Z 16004KT 18/17 A2983 RMK A01 T01780174  RH  098%=      5-min Rain = 0
KTH1 241034Z 16004KT 18/17 A2983 RMK A01 T01780174  RH  098%=      5-min Rain = 0
KTH1 241035Z 16004KT 18/17 A2984 RMK A01 T01780174  RH  098%=      5-min Rain = 0
KTH1 241036Z 15004KT 18/18 A2984 RMK A01 T01780175  RH  098%=      5-min Rain = 0
KTH1 241037Z 15003KT 18/18 A2984 RMK A01 T01790175  RH  098%=      5-min Rain = 0
KTH1 241038Z 15004KT 18/18 A2984 RMK A01 T01790175  RH  097%=      5-min Rain = 0
KTH1 241039Z 15004KT 18/18 A2984 RMK A01 T01790175  RH  097%=      5-min Rain = 0
KTH1 241040Z 15005KT 18/18 A2984 RMK A01 T01790175  RH  097%=      5-min Rain = 0
KTH1 241041Z 14005KT 18/17 A2984 RMK A01 T01790174  RH  097%=      5-min Rain = 0
KTH1 241042Z 14005KT 18/17 A2984 RMK A01 T01790174  RH  097%=      5-min Rain = 0
KTH1 241043Z 14005KT 18/17 A2984 RMK A01 T01790174  RH  097%=      5-min Rain = 0
KTH1 241044Z 14005KT 18/17 A2984 RMK A01 T01790174  RH  097%=      5-min Rain = 0
KTH1 241045Z 14005KT 18/17 A2984 RMK A01 T01790174  RH  097%=      5-min Rain = 0
KTH1 241046Z 14005KT 18/17 A2984 RMK A01 T01790174  RH  097%=      5-min Rain = 0
KTH1 241047Z 14006KT 18/17 A2984 RMK A01 T01790174  RH  097%=      5-min Rain = 0
KTH1 241048Z 14005KT 18/17 A2984 RMK A01 T01790174  RH  097%=      5-min Rain = 0
KTH1 241049Z 14006KT 18/17 A2984 RMK A01 T01790174  RH  097%=      5-min Rain = 0
KTH1 241050Z 15005KT 18/17 A2984 RMK A01 T01790174  RH  097%=      5-min Rain = 0
KTH1 241051Z 15006KT 18/17 A2984 RMK A01 T01790174  RH  097%=      5-min Rain = 0
KTH1 241052Z 15005KT 18/17 A2984 RMK A01 T01790173  RH  097%=      5-min Rain = 0
KTH1 241053Z 15007KT 18/17 A2984 RMK A01 T01790174  RH  097%=      5-min Rain = 0
KTH1 241054Z 14006KT 18/17 A2984 RMK A01 T01790174  RH  097%=      5-min Rain = 0
KTH1 241055Z 15006KT 18/17 A2984 RMK A01 T01790174  RH  097%=      5-min Rain = 0
KTH1 241056Z 15006KT 18/17 A2984 RMK A01 T01790174  RH  097%=      5-min Rain = 0
KTH1 241057Z 14006KT 18/17 A2984 RMK A01 T01790173  RH  097%=      5-min Rain = 0
KTH1 241058Z 14006KT 18/17 A2984 RMK A01 T01790173  RH  096%=      5-min Rain = 0
KTH1 241059Z 14006KT 18/17 A2984 RMK A01 T01790174  RH  097%=      5-min Rain = 0
KTH1 241100Z 14006KT 18/17 A2984 RMK A01 T01790174  RH  097%=      5-min Rain = 0
KTH1 241101Z 14006KT 18/17 A2984 RMK A01 T01790174  RH  097%=      5-min Rain = 0
KTH1 241102Z 14007KT 18/17 A2984 RMK A01 T01790174  RH  097%=      5-min Rain = 0
KTH1 241103Z 13005KT 18/17 A2984 RMK A01 T01790174  RH  097%=      5-min Rain = 0
KTH1 241104Z 13004KT 18/17 A2984 RMK A01 T01790174  RH  097%=      5-min Rain = 0
KTH1 241105Z 14005KT 18/17 A2984 RMK A01 T01790174  RH  097%=      5-min Rain = 0
KTH1 241106Z 13005KT 18/17 A2984 RMK A01 T01790174  RH  097%=      5-min Rain = 0
KTH1 241107Z 14005KT 18/17 A2984 RMK A01 T01790174  RH  097%=      5-min Rain = 0
KTH1 241108Z 13004KT 18/17 A2984 RMK A01 T01790174  RH  097%=      5-min Rain = 0
KTH1 241109Z 14005KT 18/17 A2984 RMK A01 T01790174  RH  097%=      5-min Rain = 0
KTH1 241110Z 14004KT 18/17 A2984 RMK A01 T01790174  RH  097%=      5-min Rain = 0
KTH1 241111Z 13004KT 18/17 A2984 RMK A01 T01780174  RH  097%=      5-min Rain = 0
KTH1 241112Z 13005KT 18/17 A2984 RMK A01 T01780174  RH  097%=      5-min Rain = 0
KTH1 241113Z 13004KT 18/17 A2984 RMK A01 T01780174  RH  097%=      5-min Rain = 0
KTH1 241114Z 13004KT 18/17 A2984 RMK A01 T01780174  RH  097%=      5-min Rain = 0
KTH1 241115Z 13003KT 18/17 A2984 RMK A01 T01780174  RH  098%=      5-min Rain = 0
KTH1 241116Z 13004KT 18/18 A2984 RMK A01 T01780175  RH  098%=      5-min Rain = 0
KTH1 241117Z 13005KT 18/17 A2984 RMK A01 T01780174  RH  098%=      5-min Rain = 0
KTH1 241118Z 13004KT 18/17 A2984 RMK A01 T01780174  RH  098%=      5-min Rain = 0
KTH1 241119Z 13004KT 18/17 A2984 RMK A01 T01770174  RH  098%=      5-min Rain = 0
KTH1 241120Z 12004KT 18/17 A2984 RMK A01 T01770174  RH  098%=      5-min Rain = 0
KTH1 241121Z 12004KT 18/17 A2984 RMK A01 T01770174  RH  098%=      5-min Rain = 0
KTH1 241122Z 13005KT 18/17 A2984 RMK A01 T01770174  RH  098%=      5-min Rain = 0
KTH1 241123Z 14004KT 18/17 A2984 RMK A01 T01770174  RH  098%=      5-min Rain = 0
KTH1 241124Z 13004KT 18/17 A2984 RMK A01 T01770174  RH  098%=      5-min Rain = 0
KTH1 241125Z 13004KT 18/17 A2984 RMK A01 T01760174  RH  098%=      5-min Rain = 0
KTH1 241126Z 13004KT 18/17 A2984 RMK A01 T01760174  RH  098%=      5-min Rain = 0
KTH1 241127Z 13003KT 18/17 A2984 RMK A01 T01760174  RH  099%=      5-min Rain = 0
KTH1 241128Z 13004KT 18/17 A2983 RMK A01 T01760174  RH  099%=      5-min Rain = 0
KTH1 241129Z 12004KT 18/17 A2983 RMK A01 T01760174  RH  099%=      5-min Rain = 0
KTH1 241130Z 12004KT 18/17 A2983 RMK A01 T01760174  RH  099%=      5-min Rain = 0
KTH1 241131Z 12004KT 18/17 A2983 RMK A01 T01760174  RH  099%=      5-min Rain = 0
KTH1 241132Z 12004KT 18/17 A2983 RMK A01 T01760174  RH  099%=      5-min Rain = 0
KTH1 241133Z 12004KT 18/17 A2983 RMK A01 T01760174  RH  099%=      5-min Rain = 0
KTH1 241134Z 12004KT 18/17 A2983 RMK A01 T01760174  RH  099%=      5-min Rain = 0
KTH1 241135Z 12004KT 18/17 A2983 RMK A01 T01760174  RH  099%=      5-min Rain = 0
KTH1 241136Z 11004KT 18/17 A2983 RMK A01 T01750174  RH  099%=      5-min Rain = 0
KTH1 241137Z 11005KT 18/17 A2983 RMK A01 T01750174  RH  099%=      5-min Rain = 0
KTH1 241138Z 11004KT 18/17 A2983 RMK A01 T01750174  RH  099%=      5-min Rain = 0
KTH1 241139Z 11005KT 18/17 A2983 RMK A01 T01750174  RH  099%=      5-min Rain = 0
KTH1 241140Z 11005KT 18/17 A2983 RMK A01 T01750174  RH  099%=      5-min Rain = 0
KTH1 241141Z 12004KT 18/17 A2983 RMK A01 T01750174  RH  099%=      5-min Rain = 0
KTH1 241142Z 13005KT 18/17 A2983 RMK A01 T01750174  RH  099%=      5-min Rain = 0
KTH1 241143Z 13004KT 18/17 A2983 RMK A01 T01750174  RH  099%=      5-min Rain = 0
KTH1 241144Z 13004KT 18/17 A2983 RMK A01 T01750173  RH  099%=      5-min Rain = 0
KTH1 241145Z 13004KT 18/17 A2983 RMK A01 T01750173  RH  099%=      5-min Rain = 0
KTH1 241146Z 13004KT 17/17 A2983 RMK A01 T01740173  RH  099%=      5-min Rain = 0
KTH1 241147Z 13004KT 17/17 A2983 RMK A01 T01740173  RH  099%=      5-min Rain = 0
KTH1 241148Z 13004KT 17/17 A2983 RMK A01 T01740173  RH  099%=      5-min Rain = 0
KTH1 241149Z 13004KT 17/17 A2983 RMK A01 T01740173  RH  099%=      5-min Rain = 0
KTH1 241150Z 12004KT 17/17 A2983 RMK A01 T01740173  RH  099%=      5-min Rain = 0
KTH1 241151Z 11005KT 17/17 A2983 RMK A01 T01740174  RH  100%=      5-min Rain = 0
KTH1 241152Z 11004KT 17/17 A2983 RMK A01 T01740174  RH  100%=      5-min Rain = 0
KTH1 241153Z 13004KT 17/17 A2983 RMK A01 T01740174  RH  100%=      5-min Rain = 0
KTH1 241154Z 13004KT 18/17 A2983 RMK A01 T01750174  RH  100%=      5-min Rain = 0
KTH1 241155Z 13004KT 17/17 A2983 RMK A01 T01740174  RH  100%=      5-min Rain = 0
KTH1 241156Z 12004KT 18/17 A2983 RMK A01 T01750174  RH  100%=      5-min Rain = 0
KTH1 241157Z 11004KT 18/17 A2983 RMK A01 T01750174  RH  100%=      5-min Rain = 0
KTH1 241158Z 12004KT 17/17 A2983 RMK A01 T01740174  RH  100%=      5-min Rain = 0
KTH1 241159Z 11004KT 18/17 A2983 RMK A01 T01750174  RH  100%=      5-min Rain = 0
KTH1 241200Z 11004KT 17/17 A2983 RMK A01 T01740174  RH  100%=      5-min Rain = 0
KTH1 241201Z 12004KT 18/18 A2984 RMK A01 T01750175  RH  100%=      5-min Rain = 0
KTH1 241202Z 11004KT 18/18 A2983 RMK A01 T01750175  RH  100%=      5-min Rain = 0
KTH1 241203Z 11005KT 18/18 A2983 RMK A01 T01750175  RH  100%=      5-min Rain = 0
KTH1 241204Z 12004KT 18/18 A2983 RMK A01 T01750175  RH  100%=      5-min Rain = 0
KTH1 241205Z 12005KT 18/18 A2983 RMK A01 T01760176  RH  100%=      5-min Rain = 0
KTH1 241206Z 12005KT 18/18 A2983 RMK A01 T01760176  RH  100%=      5-min Rain = 0
KTH1 241207Z 12006KT 18/18 A2983 RMK A01 T01760176  RH  100%=      5-min Rain = 0
KTH1 241208Z 11005KT 18/18 A2983 RMK A01 T01760176  RH  100%=      5-min Rain = 0
KTH1 241209Z 12005KT 18/18 A2983 RMK A01 T01760176  RH  100%=      5-min Rain = 0
KTH1 241210Z 12004KT 18/18 A2983 RMK A01 T01770177  RH  100%=      5-min Rain = 0
KTH1 241211Z 12004KT 18/18 A2983 RMK A01 T01770177  RH  100%=      5-min Rain = 0
KTH1 241212Z 12003KT 18/18 A2983 RMK A01 T01770177  RH  100%=      5-min Rain = 0
KTH1 241213Z 11004KT 18/18 A2983 RMK A01 T01770177  RH  100%=      5-min Rain = 0
KTH1 241214Z 12004KT 18/18 A2983 RMK A01 T01780178  RH  100%=      5-min Rain = 0
KTH1 241215Z 12005KT 18/18 A2983 RMK A01 T01780178  RH  100%=      5-min Rain = 0
KTH1 241216Z 12003KT 18/18 A2983 RMK A01 T01780178  RH  100%=      5-min Rain = 0
KTH1 241217Z 11004KT 18/18 A2983 RMK A01 T01780178  RH  100%=      5-min Rain = 0
KTH1 241218Z 11004KT 18/18 A2983 RMK A01 T01780178  RH  100%=      5-min Rain = 0
KTH1 241219Z 11004KT 18/18 A2983 RMK A01 T01790179  RH  100%=      5-min Rain = 0
KTH1 241220Z 12005KT 18/18 A2984 RMK A01 T01790179  RH  100%=      5-min Rain = 0
KTH1 241221Z 12004KT 18/18 A2984 RMK A01 T01790179  RH  100%=      5-min Rain = 0
KTH1 241222Z 11005KT 18/18 A2984 RMK A01 T01790179  RH  100%=      5-min Rain = 0
KTH1 241223Z 11006KT 18/18 A2983 RMK A01 T01790179  RH  100%=      5-min Rain = 0
KTH1 241224Z 12005KT 18/18 A2983 RMK A01 T01800179  RH  100%=      5-min Rain = 0
KTH1 241225Z 12005KT 18/18 A2984 RMK A01 T01800180  RH  100%=      5-min Rain = 0
KTH1 241226Z 13004KT 18/18 A2984 RMK A01 T01800180  RH  100%=      5-min Rain = 0
KTH1 241227Z 12005KT 18/18 A2984 RMK A01 T01800180  RH  100%=      5-min Rain = 0
KTH1 241228Z 13004KT 18/18 A2984 RMK A01 T01810180  RH  100%=      5-min Rain = 0
KTH1 241229Z 13003KT 18/18 A2984 RMK A01 T01810180  RH  100%=      5-min Rain = 0
KTH1 241230Z 13004KT 18/18 A2984 RMK A01 T01810181  RH  100%=      5-min Rain = 0
KTH1 241231Z 13005KT 18/18 A2984 RMK A01 T01810181  RH  100%=      5-min Rain = 0
KTH1 241232Z 13005KT 18/18 A2984 RMK A01 T01810181  RH  100%=      5-min Rain = 0
KTH1 241233Z 14005KT 18/18 A2984 RMK A01 T01810181  RH  100%=      5-min Rain = 0
KTH1 241234Z 13005KT 18/18 A2984 RMK A01 T01810181  RH  100%=      5-min Rain = 0
KTH1 241235Z 13004KT 18/18 A2984 RMK A01 T01810181  RH  100%=      5-min Rain = 0
KTH1 241236Z 13005KT 18/18 A2984 RMK A01 T01820181  RH  100%=      5-min Rain = 0
KTH1 241237Z 14005KT 18/18 A2984 RMK A01 T01820182  RH  100%=      5-min Rain = 0
KTH1 241238Z 14005KT 18/18 A2984 RMK A01 T01820182  RH  100%=      5-min Rain = 0
KTH1 241239Z 15004KT 18/18 A2984 RMK A01 T01820182  RH  100%=      5-min Rain = 0
KTH1 241240Z 14005KT 18/18 A2984 RMK A01 T01820182  RH  100%=      5-min Rain = 0
KTH1 241241Z 13006KT 18/18 A2984 RMK A01 T01830183  RH  100%=      5-min Rain = 0
KTH1 241242Z 13005KT 18/18 A2984 RMK A01 T01830183  RH  100%=      5-min Rain = 0
KTH1 241243Z 13005KT 18/18 A2985 RMK A01 T01830183  RH  100%=      5-min Rain = 0
KTH1 241244Z 14004KT 18/18 A2985 RMK A01 T01830183  RH  100%=      5-min Rain = 0
KTH1 241245Z 15004KT 18/18 A2985 RMK A01 T01840184  RH  100%=      5-min Rain = 0
KTH1 241246Z 14002KT 18/18 A2985 RMK A01 T01840184  RH  100%=      5-min Rain = 0
KTH1 241247Z 15004KT 18/18 A2985 RMK A01 T01840184  RH  100%=      5-min Rain = 0
KTH1 241248Z 14004KT 18/18 A2985 RMK A01 T01840184  RH  100%=      5-min Rain = 0
KTH1 241249Z 14005KT 19/19 A2985 RMK A01 T01850185  RH  100%=      5-min Rain = 0
KTH1 241250Z 15004KT 19/19 A2985 RMK A01 T01850185  RH  100%=      5-min Rain = 0
KTH1 241251Z 15003KT 19/19 A2985 RMK A01 T01860185  RH  100%=      5-min Rain = 0
KTH1 241252Z 15004KT 19/19 A2985 RMK A01 T01860186  RH  100%=      5-min Rain = 0
KTH1 241253Z 15005KT 19/19 A2985 RMK A01 T01870187  RH  100%=      5-min Rain = 0
KTH1 241254Z 15006KT 19/19 A2985 RMK A01 T01870187  RH  100%=      5-min Rain = 0
KTH1 241255Z 14006KT 19/19 A2985 RMK A01 T01870187  RH  100%=      5-min Rain = 0
KTH1 241256Z 14005KT 19/19 A2985 RMK A01 T01870187  RH  100%=      5-min Rain = 0
KTH1 241257Z 15005KT 19/19 A2985 RMK A01 T01880188  RH  100%=      5-min Rain = 0
KTH1 241258Z 15006KT 19/19 A2985 RMK A01 T01880188  RH  100%=      5-min Rain = 0
KTH1 241259Z 14005KT 19/19 A2985 RMK A01 T01880188  RH  100%=      5-min Rain = 0
KTH1 241300Z 15006KT 19/19 A2985 RMK A01 T01880188  RH  100%=      5-min Rain = 0
KTH1 241301Z 15005KT 19/19 A2985 RMK A01 T01890188  RH  100%=      5-min Rain = 0
KTH1 241302Z 15004KT 19/19 A2985 RMK A01 T01890188  RH  100%=      5-min Rain = 0
KTH1 241303Z 15005KT 19/19 A2985 RMK A01 T01890189  RH  100%=      5-min Rain = 0
KTH1 241304Z 15005KT 19/19 A2985 RMK A01 T01900189  RH  100%=      5-min Rain = 0
KTH1 241305Z 15005KT 19/19 A2985 RMK A01 T01900189  RH  100%=      5-min Rain = 0
KTH1 241306Z 15004KT 19/19 A2985 RMK A01 T01900189  RH  100%=      5-min Rain = 0
KTH1 241307Z 15004KT 19/19 A2985 RMK A01 T01900189  RH  100%=      5-min Rain = 0
KTH1 241308Z 15004KT 19/19 A2985 RMK A01 T01900190  RH  099%=      5-min Rain = 0
KTH1 241309Z 15004KT 19/19 A2985 RMK A01 T01910190  RH  099%=      5-min Rain = 0
KTH1 241310Z 16005KT 19/19 A2985 RMK A01 T01910190  RH  099%=      5-min Rain = 0
KTH1 241311Z 16006KT 19/19 A2985 RMK A01 T01910190  RH  099%=      5-min Rain = 0
KTH1 241312Z 16003KT 19/19 A2985 RMK A01 T01910190  RH  099%=      5-min Rain = 0
KTH1 241313Z 16004KT 19/19 A2986 RMK A01 T01910190  RH  099%=      5-min Rain = 0
KTH1 241314Z 16004KT 19/19 A2986 RMK A01 T01920191  RH  099%=      5-min Rain = 0
KTH1 241315Z 16004KT 19/19 A2985 RMK A01 T01910190  RH  099%=      5-min Rain = 0
KTH1 241316Z 16005KT 19/19 A2985 RMK A01 T01910190  RH  099%=      5-min Rain = 0
KTH1 241317Z 16004KT 19/19 A2985 RMK A01 T01920190  RH  099%=      5-min Rain = 0
KTH1 241318Z 16004KT 19/19 A2985 RMK A01 T01920190  RH  099%=      5-min Rain = 0
KTH1 241319Z 17005KT 19/19 A2985 RMK A01 T01920191  RH  099%=      5-min Rain = 0
KTH1 241320Z 17005KT 19/19 A2986 RMK A01 T01920191  RH  099%=      5-min Rain = 0
KTH1 241321Z 17004KT 19/19 A2986 RMK A01 T01920191  RH  099%=      5-min Rain = 0
KTH1 241322Z 17005KT 19/19 A2986 RMK A01 T01920191  RH  099%=      5-min Rain = 0
KTH1 241323Z 17006KT 19/19 A2986 RMK A01 T01920191  RH  099%=      5-min Rain = 0
KTH1 241324Z 16006KT 19/19 A2986 RMK A01 T01920191  RH  099%=      5-min Rain = 0
KTH1 241325Z 15007KT 19/19 A2986 RMK A01 T01920190  RH  099%=      5-min Rain = 0
KTH1 241326Z 16005KT 19/19 A2986 RMK A01 T01930191  RH  099%=      5-min Rain = 0
KTH1 241327Z 17007KT 19/19 A2986 RMK A01 T01930192  RH  099%=      5-min Rain = 0
KTH1 241328Z 17006KT 19/19 A2986 RMK A01 T01930192  RH  099%=      5-min Rain = 0
KTH1 241329Z 18006KT 19/19 A2986 RMK A01 T01940192  RH  099%=      5-min Rain = 0
KTH1 241330Z 17005KT 19/19 A2986 RMK A01 T01940192  RH  099%=      5-min Rain = 0
KTH1 241331Z 17007KT 19/19 A2985 RMK A01 T01940192  RH  099%=      5-min Rain = 0
KTH1 241332Z 17004KT 20/19 A2986 RMK A01 T01950193  RH  099%=      5-min Rain = 0
KTH1 241333Z 17005KT 20/19 A2986 RMK A01 T01950193  RH  099%=      5-min Rain = 0
KTH1 241334Z 18005KT 20/19 A2986 RMK A01 T01960194  RH  099%=      5-min Rain = 0
KTH1 241335Z 17005KT 20/19 A2986 RMK A01 T01960194  RH  099%=      5-min Rain = 0
KTH1 241336Z 17004KT 20/19 A2986 RMK A01 T01970194  RH  099%=      5-min Rain = 0
KTH1 241337Z 17005KT 20/20 A2986 RMK A01 T01980195  RH  098%=      5-min Rain = 0
KTH1 241338Z 18006KT 20/20 A2986 RMK A01 T01990196  RH  098%=      5-min Rain = 0
KTH1 241339Z 17006KT 20/20 A2985 RMK A01 T02000197  RH  098%=      5-min Rain = 0
KTH1 241340Z 17005KT 20/20 A2985 RMK A01 T02010198  RH  098%=      5-min Rain = 0
KTH1 241341Z 17008KT 20/20 A2985 RMK A01 T02030199  RH  098%=      5-min Rain = 0
KTH1 241342Z 17008KT 20/20 A2985 RMK A01 T02040199  RH  097%=      5-min Rain = 0
KTH1 241343Z 16006KT 21/20 A2985 RMK A01 T02050198  RH  096%=      5-min Rain = 0
KTH1 241344Z 17005KT 21/20 A2985 RMK A01 T02060199  RH  096%=      5-min Rain = 0
KTH1 241345Z 17008G13KT 21/20 A2985 RMK A01 T02070200  RH  095%=      5-min Rain = 0
KTH1 241346Z 17010KT 21/20 A2986 RMK A01 T02080198  RH  094%=      5-min Rain = 0
KTH1 241347Z 18007KT 21/20 A2986 RMK A01 T02090198  RH  094%=      5-min Rain = 0
KTH1 241348Z 17007KT 21/20 A2986 RMK A01 T02100200  RH  094%=      5-min Rain = 0
KTH1 241349Z 17006KT 21/20 A2985 RMK A01 T02110201  RH  094%=      5-min Rain = 0
KTH1 241350Z 18007KT 21/20 A2985 RMK A01 T02120200  RH  093%=      5-min Rain = 0
KTH1 241351Z 18009KT 21/20 A2986 RMK A01 T02130200  RH  092%=      5-min Rain = 0
KTH1 241352Z 18010KT 21/20 A2986 RMK A01 T02140198  RH  091%=      5-min Rain = 0
KTH1 241353Z 18009KT 21/20 A2985 RMK A01 T02140197  RH  090%=      5-min Rain = 0
KTH1 241354Z 17010KT 22/20 A2985 RMK A01 T02150197  RH  090%=      5-min Rain = 0
KTH1 241355Z 17009G14KT 22/20 A2985 RMK A01 T02160195  RH  088%=      5-min Rain = 0
KTH1 241356Z 17009KT 22/20 A2985 RMK A01 T02170196  RH  088%=      5-min Rain = 0
KTH1 241357Z 18011KT 22/20 A2985 RMK A01 T02170195  RH  087%=      5-min Rain = 0
KTH1 241358Z 18008KT 22/20 A2985 RMK A01 T02180196  RH  087%=      5-min Rain = 0
KTH1 241359Z 18007G13KT 22/20 A2985 RMK A01 T02190197  RH  088%=      5-min Rain = 0
KTH1 241400Z 18009KT 22/20 A2986 RMK A01 T02200198  RH  088%=      5-min Rain = 0
KTH1 241401Z 18009KT 22/20 A2985 RMK A01 T02210195  RH  085%=      5-min Rain = 0
KTH1 241402Z 17007KT 22/20 A2985 RMK A01 T02220196  RH  085%=      5-min Rain = 0
KTH1 241403Z 17009KT 22/20 A2986 RMK A01 T02230197  RH  085%=      5-min Rain = 0
KTH1 241404Z 17014KT 22/19 A2986 RMK A01 T02230192  RH  083%=      5-min Rain = 0
KTH1 241405Z 17014KT 22/19 A2986 RMK A01 T02240189  RH  081%=      5-min Rain = 0
KTH1 241406Z 17008KT 22/19 A2985 RMK A01 T02240191  RH  082%=      5-min Rain = 0
KTH1 241407Z 17010KT 22/19 A2986 RMK A01 T02240194  RH  083%=      5-min Rain = 0
KTH1 241408Z 18010KT 23/19 A2986 RMK A01 T02260194  RH  082%=      5-min Rain = 0
KTH1 241409Z 18011G16KT 23/19 A2986 RMK A01 T02260192  RH  081%=      5-min Rain = 0
KTH1 241410Z 18009KT 23/19 A2985 RMK A01 T02270191  RH  080%=      5-min Rain = 0
KTH1 241411Z 20006KT 23/19 A2985 RMK A01 T02270194  RH  081%=      5-min Rain = 0
KTH1 241412Z 18007KT 23/19 A2985 RMK A01 T02280194  RH  081%=      5-min Rain = 0
KTH1 241413Z 18009G14KT 23/19 A2985 RMK A01 T02290194  RH  081%=      5-min Rain = 0
KTH1 241414Z 19012KT 23/19 A2985 RMK A01 T02300190  RH  078%=      5-min Rain = 0
KTH1 241415Z 18008G14KT 23/19 A2986 RMK A01 T02300190  RH  078%=      5-min Rain = 0
KTH1 241416Z 19008KT 23/19 A2986 RMK A01 T02310193  RH  079%=      5-min Rain = 0
KTH1 241417Z 18010G15KT 23/19 A2986 RMK A01 T02320191  RH  078%=      5-min Rain = 0
KTH1 241418Z 19008G13KT 23/19 A2986 RMK A01 T02320189  RH  077%=      5-min Rain = 0
KTH1 241419Z 18008G13KT 23/19 A2986 RMK A01 T02330189  RH  076%=      5-min Rain = 0
KTH1 241420Z 18011G16KT 23/19 A2986 RMK A01 T02330190  RH  077%=      5-min Rain = 0
KTH1 241421Z 19013KT 23/19 A2986 RMK A01 T02340186  RH  075%=      5-min Rain = 0
KTH1 241422Z 19010G15KT 23/19 A2986 RMK A01 T02340187  RH  075%=      5-min Rain = 0
KTH1 241423Z 19014KT 23/19 A2986 RMK A01 T02340185  RH  074%=      5-min Rain = 0
KTH1 241424Z 19012G17KT 23/18 A2986 RMK A01 T02330184  RH  074%=      5-min Rain = 0
KTH1 241425Z 19009G14KT 23/19 A2986 RMK A01 T02330186  RH  075%=      5-min Rain = 0
KTH1 241426Z 19013KT 23/19 A2986 RMK A01 T02330185  RH  075%=      5-min Rain = 0
KTH1 241427Z 19009KT 23/19 A2986 RMK A01 T02330185  RH  075%=      5-min Rain = 0
KTH1 241428Z 19010G16KT 23/18 A2986 RMK A01 T02330184  RH  074%=      5-min Rain = 0
KTH1 241429Z 19015G21KT 23/18 A2985 RMK A01 T02330181  RH  073%=      5-min Rain = 0
KTH1 241430Z 18015KT 23/18 A2985 RMK A01 T02330181  RH  072%=      5-min Rain = 0
KTH1 241431Z 19012G17KT 23/18 A2985 RMK A01 T02330182  RH  073%=      5-min Rain = 0
KTH1 241432Z 19012KT 23/18 A2985 RMK A01 T02330183  RH  073%=      5-min Rain = 0
KTH1 241433Z 18016KT 23/18 A2985 RMK A01 T02330180  RH  072%=      5-min Rain = 0
KTH1 241434Z 18013G19KT 23/18 A2985 RMK A01 T02340180  RH  072%=      5-min Rain = 0
KTH1 241435Z 19014G21KT 23/18 A2985 RMK A01 T02340180  RH  072%=      5-min Rain = 0
KTH1 241436Z 19010KT 23/18 A2985 RMK A01 T02340181  RH  072%=      5-min Rain = 0
KTH1 241437Z 19009G14KT 24/18 A2985 RMK A01 T02350183  RH  073%=      5-min Rain = 0
KTH1 241438Z 19011KT 24/19 A2985 RMK A01 T02360185  RH  073%=      5-min Rain = 0
KTH1 241439Z 18010G15KT 24/18 A2985 RMK A01 T02370184  RH  072%=      5-min Rain = 0
KTH1 241440Z 19013G18KT 24/18 A2986 RMK A01 T02380183  RH  071%=      5-min Rain = 0
KTH1 241441Z 17010KT 24/18 A2985 RMK A01 T02390183  RH  071%=      5-min Rain = 0
KTH1 241442Z 19009KT 24/18 A2985 RMK A01 T02390183  RH  071%=      5-min Rain = 0
KTH1 241443Z 18007KT 24/19 A2985 RMK A01 T02400186  RH  072%=      5-min Rain = 0
KTH1 241444Z 19012G18KT 24/18 A2985 RMK A01 T02410183  RH  070%=      5-min Rain = 0
KTH1 241445Z 19013G18KT 24/18 A2985 RMK A01 T02420182  RH  069%=      5-min Rain = 0
KTH1 241446Z 18010KT 24/18 A2985 RMK A01 T02410183  RH  070%=      5-min Rain = 0
KTH1 241447Z 18012KT 24/18 A2985 RMK A01 T02420182  RH  069%=      5-min Rain = 0
KTH1 241448Z 18012G17KT 24/18 A2985 RMK A01 T02420182  RH  069%=      5-min Rain = 0
KTH1 241449Z 19011KT 24/18 A2985 RMK A01 T02430181  RH  068%=      5-min Rain = 0
KTH1 241450Z 18012KT 24/18 A2985 RMK A01 T02430183  RH  069%=      5-min Rain = 0
KTH1 241451Z 19008KT 24/18 A2985 RMK A01 T02440183  RH  069%=      5-min Rain = 0
KTH1 241452Z 18007G13KT 25/19 A2985 RMK A01 T02450185  RH  069%=      5-min Rain = 0
KTH1 241453Z 18010G16KT 25/19 A2985 RMK A01 T02460187  RH  069%=      5-min Rain = 0
KTH1 241454Z 18013KT 25/18 A2985 RMK A01 T02480182  RH  067%=      5-min Rain = 0
KTH1 241455Z 18010KT 25/18 A2985 RMK A01 T02480182  RH  067%=      5-min Rain = 0
KTH1 241456Z 18011KT 25/18 A2985 RMK A01 T02480183  RH  067%=      5-min Rain = 0
KTH1 241457Z 18008G13KT 25/19 A2985 RMK A01 T02490185  RH  068%=      5-min Rain = 0
KTH1 241458Z 19007G12KT 25/19 A2985 RMK A01 T02510187  RH  068%=      5-min Rain = 0
KTH1 241459Z 20014KT 25/18 A2985 RMK A01 T02520183  RH  066%=      5-min Rain = 0
KTH1 241500Z 19008G13KT 25/18 A2985 RMK A01 T02520182  RH  065%=      5-min Rain = 0
KTH1 241501Z 20008KT 25/18 A2985 RMK A01 T02520184  RH  066%=      5-min Rain = 0
KTH1 241502Z 19009KT 25/18 A2985 RMK A01 T02540184  RH  065%=      5-min Rain = 0
KTH1 241503Z 20009KT 26/18 A2985 RMK A01 T02550184  RH  065%=      5-min Rain = 0
KTH1 241504Z 19009G14KT 26/18 A2985 RMK A01 T02560183  RH  064%=      5-min Rain = 0
KTH1 241505Z 19013KT 26/18 A2985 RMK A01 T02560179  RH  063%=      5-min Rain = 0
KTH1 241506Z 19014KT 26/18 A2985 RMK A01 T02560177  RH  062%=      5-min Rain = 0
KTH1 241507Z 19013G19KT 26/18 A2985 RMK A01 T02560178  RH  062%=      5-min Rain = 0
KTH1 241508Z 19013G18KT 26/18 A2985 RMK A01 T02560177  RH  062%=      5-min Rain = 0
KTH1 241509Z 18014G20KT 26/18 A2985 RMK A01 T02560177  RH  062%=      5-min Rain = 0
KTH1 241510Z 18013KT 26/18 A2985 RMK A01 T02560177  RH  062%=      5-min Rain = 0
KTH1 241511Z 18009KT 26/18 A2985 RMK A01 T02550179  RH  063%=      5-min Rain = 0
KTH1 241512Z 18009KT 26/18 A2985 RMK A01 T02560182  RH  063%=      5-min Rain = 0
KTH1 241513Z 18012KT 26/18 A2985 RMK A01 T02580181  RH  063%=      5-min Rain = 0
KTH1 241514Z 18011KT 26/18 A2985 RMK A01 T02590182  RH  063%=      5-min Rain = 0
KTH1 241515Z 18015KT 26/18 A2985 RMK A01 T02590182  RH  062%=      5-min Rain = 0
KTH1 241516Z 18013G20KT 26/18 A2985 RMK A01 T02590181  RH  062%=      5-min Rain = 0
KTH1 241517Z 18013G20KT 26/18 A2985 RMK A01 T02590181  RH  062%=      5-min Rain = 0
KTH1 241518Z 18008KT 26/19 A2985 RMK A01 T02580185  RH  064%=      5-min Rain = 0
KTH1 241519Z 17012KT 26/19 A2985 RMK A01 T02590187  RH  064%=      5-min Rain = 0
KTH1 241520Z 19015G22KT 26/19 A2985 RMK A01 T02610185  RH  063%=      5-min Rain = 0
KTH1 241521Z 18014KT 26/19 A2985 RMK A01 T02600186  RH  064%=      5-min Rain = 0
KTH1 241522Z 18015G26KT 26/19 A2985 RMK A01 T02600187  RH  064%=      5-min Rain = 0
KTH1 241523Z 19018G23KT 26/19 A2985 RMK A01 T02590186  RH  064%=      5-min Rain = 0
KTH1 241524Z 19015G23KT 26/19 A2985 RMK A01 T02590188  RH  065%=      5-min Rain = 0
KTH1 241525Z 18017KT 26/19 A2985 RMK A01 T02590189  RH  065%=      5-min Rain = 0
KTH1 241526Z 19016G23KT 26/19 A2985 RMK A01 T02600187  RH  064%=      5-min Rain = 0
KTH1 241527Z 19015KT 26/19 A2985 RMK A01 T02600189  RH  065%=      5-min Rain = 0
KTH1 241528Z 19016KT 26/19 A2985 RMK A01 T02600187  RH  064%=      5-min Rain = 0
KTH1 241529Z 20009KT 26/19 A2985 RMK A01 T02610188  RH  064%=      5-min Rain = 0
KTH1 241530Z 19013G20KT 26/19 A2985 RMK A01 T02610192  RH  066%=      5-min Rain = 0
KTH1 241531Z 18016G21KT 26/19 A2984 RMK A01 T02620188  RH  064%=      5-min Rain = 0
KTH1 241532Z 19014G21KT 26/19 A2985 RMK A01 T02620188  RH  064%=      5-min Rain = 0
KTH1 241533Z 18013G18KT 26/19 A2984 RMK A01 T02620187  RH  063%=      5-min Rain = 0
KTH1 241534Z 18009G15KT 26/19 A2984 RMK A01 T02620189  RH  064%=      5-min Rain = 0
KTH1 241535Z 18013KT 26/19 A2984 RMK A01 T02630191  RH  065%=      5-min Rain = 0
KTH1 241536Z 18012G17KT 26/19 A2984 RMK A01 T02640192  RH  064%=      5-min Rain = 0
KTH1 241537Z 19014KT 27/19 A2984 RMK A01 T02660190  RH  063%=      5-min Rain = 0
KTH1 241538Z 19010KT 27/19 A2984 RMK A01 T02660191  RH  063%=      5-min Rain = 0
KTH1 241539Z 18013KT 27/19 A2984 RMK A01 T02660189  RH  062%=      5-min Rain = 0
KTH1 241540Z 19011G16KT 27/19 A2984 RMK A01 T02660190  RH  063%=      5-min Rain = 0
KTH1 241541Z 18011G16KT 27/19 A2984 RMK A01 T02660190  RH  063%=      5-min Rain = 0
KTH1 241542Z 18012KT 27/19 A2984 RMK A01 T02670191  RH  063%=      5-min Rain = 0
KTH1 241543Z 18012KT 27/19 A2984 RMK A01 T02670191  RH  063%=      5-min Rain = 0
KTH1 241544Z 18012KT 27/19 A2984 RMK A01 T02670190  RH  063%=      5-min Rain = 0
KTH1 241545Z 20010KT 27/19 A2984 RMK A01 T02680191  RH  063%=      5-min Rain = 0
KTH1 241546Z 21011G17KT 27/19 A2984 RMK A01 T02680190  RH  062%=      5-min Rain = 0
KTH1 241547Z 18011KT 27/19 A2984 RMK A01 T02690192  RH  062%=      5-min Rain = 0
KTH1 241548Z 19012KT 27/19 A2984 RMK A01 T02700192  RH  063%=      5-min Rain = 0
KTH1 241549Z 19014KT 27/19 A2984 RMK A01 T02700188  RH  061%=      5-min Rain = 0
KTH1 241550Z 18011KT 27/19 A2984 RMK A01 T02690187  RH  061%=      5-min Rain = 0
KTH1 241551Z 19014KT 27/19 A2984 RMK A01 T02690190  RH  062%=      5-min Rain = 0
KTH1 241552Z 19010KT 27/19 A2984 RMK A01 T02690190  RH  062%=      5-min Rain = 0
KTH1 241553Z 19010G15KT 27/19 A2983 RMK A01 T02690190  RH  062%=      5-min Rain = 0
KTH1 241554Z 16009KT 27/19 A2984 RMK A01 T02690194  RH  063%=      5-min Rain = 0
KTH1 241555Z 16009KT 27/20 A2984 RMK A01 T02710195  RH  063%=      5-min Rain = 0
KTH1 241556Z 16010KT 27/19 A2984 RMK A01 T02730192  RH  061%=      5-min Rain = 0
KTH1 241557Z 16012G17KT 27/19 A2984 RMK A01 T02730193  RH  062%=      5-min Rain = 0
KTH1 241558Z 16010G15KT 27/19 A2983 RMK A01 T02730191  RH  061%=      5-min Rain = 0
KTH1 241559Z 15014G19KT 27/19 A2983 RMK A01 T02720193  RH  062%=      5-min Rain = 0
KTH1 241600Z 17012G18KT 27/19 A2983 RMK A01 T02720191  RH  061%=      5-min Rain = 0
KTH1 241601Z 16009G15KT 27/19 A2984 RMK A01 T02720193  RH  062%=      5-min Rain = 0
KTH1 241602Z 17013G21KT 27/19 A2983 RMK A01 T02720191  RH  061%=      5-min Rain = 0
KTH1 241603Z 16014KT 27/19 A2984 RMK A01 T02720190  RH  061%=      5-min Rain = 0
KTH1 241604Z 16012KT 27/19 A2984 RMK A01 T02710191  RH  061%=      5-min Rain = 0
KTH1 241605Z 17015KT 27/19 A2984 RMK A01 T02700188  RH  061%=      5-min Rain = 0
KTH1 241606Z 17011KT 27/19 A2984 RMK A01 T02690190  RH  062%=      5-min Rain = 0
KTH1 241607Z 19011G16KT 27/19 A2984 RMK A01 T02690192  RH  063%=      5-min Rain = 0
KTH1 241608Z 18013KT 27/19 A2984 RMK A01 T02700191  RH  062%=      5-min Rain = 0
KTH1 241609Z 17011G16KT 27/19 A2984 RMK A01 T02710189  RH  061%=      5-min Rain = 0
KTH1 241610Z 17014KT 27/19 A2984 RMK A01 T02700190  RH  062%=      5-min Rain = 0
KTH1 241611Z 19011KT 27/19 A2983 RMK A01 T02700190  RH  062%=      5-min Rain = 0
KTH1 241612Z 19009G16KT 27/19 A2983 RMK A01 T02700192  RH  063%=      5-min Rain = 0
KTH1 241613Z 18012KT 27/19 A2984 RMK A01 T02710193  RH  062%=      5-min Rain = 0
KTH1 241614Z 17012KT 27/19 A2984 RMK A01 T02720193  RH  062%=      5-min Rain = 0
KTH1 241615Z 19007G12KT 27/20 A2984 RMK A01 T02730195  RH  063%=      5-min Rain = 0
KTH1 241616Z 19011KT 27/20 A2984 RMK A01 T02740195  RH  062%=      5-min Rain = 0
KTH1 241617Z 19012KT 28/19 A2984 RMK A01 T02750193  RH  061%=      5-min Rain = 0
KTH1 241618Z 19009G17KT 27/19 A2983 RMK A01 T02740193  RH  061%=      5-min Rain = 0
KTH1 241619Z 19013G18KT 27/20 A2983 RMK A01 T02730195  RH  062%=      5-min Rain = 0
KTH1 241620Z 16009G14KT 27/20 A2983 RMK A01 T02740196  RH  062%=      5-min Rain = 0
KTH1 241621Z 18010KT 27/20 A2983 RMK A01 T02740198  RH  063%=      5-min Rain = 0
KTH1 241622Z 18013G20KT 28/20 A2983 RMK A01 T02760196  RH  062%=      5-min Rain = 0
KTH1 241623Z 18012G18KT 28/19 A2983 RMK A01 T02760191  RH  060%=      5-min Rain = 0
KTH1 241624Z 18015KT 27/19 A2983 RMK A01 T02740193  RH  061%=      5-min Rain = 0
KTH1 241625Z 18014KT 27/19 A2983 RMK A01 T02740192  RH  061%=      5-min Rain = 0
KTH1 241626Z 18013G18KT 27/19 A2983 RMK A01 T02740191  RH  061%=      5-min Rain = 0
KTH1 241627Z 18012KT 27/19 A2983 RMK A01 T02740191  RH  061%=      5-min Rain = 0
KTH1 241628Z 18013G18KT 27/20 A2983 RMK A01 T02740195  RH  062%=      5-min Rain = 0
KTH1 241629Z 19012KT 28/19 A2983 RMK A01 T02750193  RH  061%=      5-min Rain = 0
KTH1 241630Z 18010G15KT 28/20 A2983 RMK A01 T02760196  RH  062%=      5-min Rain = 0
KTH1 241631Z 18011KT 28/20 A2983 RMK A01 T02770196  RH  061%=      5-min Rain = 0
KTH1 241632Z 17014G19KT 28/20 A2983 RMK A01 T02790196  RH  061%=      5-min Rain = 0
KTH1 241633Z 18014G19KT 28/19 A2984 RMK A01 T02790194  RH  060%=      5-min Rain = 0
KTH1 241634Z 19008G15KT 28/20 A2983 RMK A01 T02790196  RH  060%=      5-min Rain = 0
KTH1 241635Z 18014G19KT 28/20 A2984 RMK A01 T02800196  RH  060%=      5-min Rain = 0
KTH1 241636Z 18015G20KT 28/19 A2983 RMK A01 T02810192  RH  059%=      5-min Rain = 0
KTH1 241637Z 17014G19KT 28/19 A2983 RMK A01 T02790192  RH  059%=      5-min Rain = 0
KTH1 241638Z 18010KT 28/20 A2983 RMK A01 T02780197  RH  061%=      5-min Rain = 0
KTH1 241639Z 17007G13KT 28/20 A2983 RMK A01 T02800196  RH  060%=      5-min Rain = 0
KTH1 241640Z 17010G17KT 28/20 A2983 RMK A01 T02820199  RH  061%=      5-min Rain = 0
KTH1 241641Z 18014G19KT 28/20 A2983 RMK A01 T02830196  RH  059%=      5-min Rain = 0
KTH1 241642Z 18010KT 28/20 A2983 RMK A01 T02830195  RH  059%=      5-min Rain = 0
KTH1 241643Z 16011G17KT 28/20 A2983 RMK A01 T02830197  RH  060%=      5-min Rain = 0
KTH1 241644Z 19017KT 28/19 A2983 RMK A01 T02830194  RH  059%=      5-min Rain = 0
KTH1 241645Z 19013G20KT 28/19 A2983 RMK A01 T02840191  RH  057%=      5-min Rain = 0
KTH1 241646Z 19013G18KT 29/19 A2984 RMK A01 T02850192  RH  057%=      5-min Rain = 0
KTH1 241647Z 20010G15KT 29/19 A2983 RMK A01 T02850192  RH  057%=      5-min Rain = 0
KTH1 241648Z 19014G21KT 29/19 A2984 RMK A01 T02850194  RH  058%=      5-min Rain = 0
KTH1 241649Z 20009G15KT 29/19 A2984 RMK A01 T02860194  RH  057%=      5-min Rain = 0
KTH1 241650Z 19014KT 29/19 A2984 RMK A01 T02860192  RH  057%=      5-min Rain = 0
KTH1 241651Z 21010KT 29/19 A2984 RMK A01 T02860191  RH  056%=      5-min Rain = 0
KTH1 241652Z 19012G18KT 29/19 A2984 RMK A01 T02860193  RH  057%=      5-min Rain = 0
KTH1 241653Z 19010G16KT 29/19 A2984 RMK A01 T02870192  RH  057%=      5-min Rain = 0
KTH1 241654Z 19011KT 29/19 A2984 RMK A01 T02870192  RH  057%=      5-min Rain = 0
KTH1 241655Z 18010KT 29/19 A2984 RMK A01 T02870192  RH  057%=      5-min Rain = 0
KTH1 241656Z 18010KT 29/19 A2984 RMK A01 T02860193  RH  057%=      5-min Rain = 0
KTH1 241657Z 17011G16KT 29/19 A2984 RMK A01 T02860194  RH  057%=      5-min Rain = 0
KTH1 241658Z 17013G18KT 29/20 A2984 RMK A01 T02880195  RH  057%=      5-min Rain = 0
KTH1 241659Z 18010G15KT 29/19 A2984 RMK A01 T02900194  RH  056%=      5-min Rain = 0
KTH1 241700Z 19010KT 29/20 A2984 RMK A01 T02910195  RH  056%=      5-min Rain = 0
KTH1 241701Z 17011G16KT 29/20 A2984 RMK A01 T02930195  RH  056%=      5-min Rain = 0
KTH1 241702Z 16010KT 29/19 A2983 RMK A01 T02940194  RH  055%=      5-min Rain = 0
KTH1 241703Z 19010KT 29/20 A2983 RMK A01 T02930195  RH  056%=      5-min Rain = 0
KTH1 241704Z 17011KT 29/20 A2984 RMK A01 T02940197  RH  056%=      5-min Rain = 0
KTH1 241705Z 18011KT 30/19 A2984 RMK A01 T02960193  RH  054%=      5-min Rain = 0
KTH1 241706Z 18013KT 30/19 A2984 RMK A01 T02960188  RH  052%=      5-min Rain = 0
KTH1 241707Z 17011G16KT 29/19 A2983 RMK A01 T02930189  RH  053%=      5-min Rain = 0
KTH1 241708Z 17012G18KT 29/19 A2983 RMK A01 T02920189  RH  054%=      5-min Rain = 0
KTH1 241709Z 17011KT 29/19 A2983 RMK A01 T02920190  RH  054%=      5-min Rain = 0
KTH1 241710Z 17009KT 29/19 A2983 RMK A01 T02930190  RH  054%=      5-min Rain = 0
KTH1 241711Z 16011KT 29/19 A2983 RMK A01 T02940190  RH  054%=      5-min Rain = 0
KTH1 241712Z 18011KT 30/19 A2983 RMK A01 T02950189  RH  053%=      5-min Rain = 0
KTH1 241713Z 17011KT 30/19 A2983 RMK A01 T02950190  RH  053%=      5-min Rain = 0
KTH1 241714Z 19009G14KT 30/19 A2983 RMK A01 T02950193  RH  054%=      5-min Rain = 0
KTH1 241715Z 19012G17KT 30/19 A2983 RMK A01 T02970192  RH  053%=      5-min Rain = 0
KTH1 241716Z 19008G13KT 30/19 A2983 RMK A01 T02970188  RH  052%=      5-min Rain = 0
KTH1 241717Z 18009G14KT 30/19 A2983 RMK A01 T02970188  RH  052%=      5-min Rain = 0
KTH1 241718Z 16010G16KT 30/19 A2983 RMK A01 T02970189  RH  052%=      5-min Rain = 0
KTH1 241719Z 17011G19KT 30/19 A2983 RMK A01 T02970191  RH  053%=      5-min Rain = 0
KTH1 241720Z 18008KT 30/19 A2983 RMK A01 T02990191  RH  053%=      5-min Rain = 0
KTH1 241721Z 16009G15KT 30/19 A2983 RMK A01 T03000190  RH  052%=      5-min Rain = 0
KTH1 241722Z 16011KT 30/19 A2983 RMK A01 T03000190  RH  052%=      5-min Rain = 0
KTH1 241723Z 17013KT 30/19 A2983 RMK A01 T03010190  RH  051%=      5-min Rain = 0
KTH1 241724Z 17010G16KT 30/19 A2983 RMK A01 T03000186  RH  051%=      5-min Rain = 0
KTH1 241725Z 17006KT 30/19 A2983 RMK A01 T02990191  RH  052%=      5-min Rain = 0
KTH1 241726Z 17007G12KT 30/19 A2983 RMK A01 T03000194  RH  053%=      5-min Rain = 0
KTH1 241727Z 19010KT 30/19 A2983 RMK A01 T03030188  RH  050%=      5-min Rain = 0
KTH1 241728Z 20012G17KT 30/18 A2983 RMK A01 T03040177  RH  047%=      5-min Rain = 0
KTH1 241729Z 20011G16KT 30/18 A2983 RMK A01 T03030180  RH  048%=      5-min Rain = 0
KTH1 241730Z 19009KT 30/18 A2983 RMK A01 T03040179  RH  047%=      5-min Rain = 0
KTH1 241731Z 19010G18KT 30/18 A2983 RMK A01 T03040184  RH  049%=      5-min Rain = 0
KTH1 241732Z 20011KT 31/18 A2983 RMK A01 T03050178  RH  047%=      5-min Rain = 0
KTH1 241733Z 19012KT 30/18 A2983 RMK A01 T03040182  RH  048%=      5-min Rain = 0
KTH1 241734Z 20012KT 30/18 A2983 RMK A01 T03030179  RH  047%=      5-min Rain = 0
KTH1 241735Z 19014G19KT 30/18 A2983 RMK A01 T03040180  RH  048%=      5-min Rain = 0
KTH1 241736Z 18014KT 30/18 A2983 RMK A01 T03040175  RH  046%=      5-min Rain = 0
KTH1 241737Z 19014KT 30/18 A2982 RMK A01 T03020177  RH  047%=      5-min Rain = 0
KTH1 241738Z 20013G18KT 30/18 A2982 RMK A01 T03010175  RH  047%=      5-min Rain = 0
KTH1 241739Z 19013KT 30/18 A2982 RMK A01 T03000178  RH  048%=      5-min Rain = 0
KTH1 241740Z 19012KT 30/18 A2982 RMK A01 T03000179  RH  048%=      5-min Rain = 0
KTH1 241741Z 19008KT 30/18 A2982 RMK A01 T03000179  RH  048%=      5-min Rain = 0
KTH1 241742Z 19010KT 30/18 A2982 RMK A01 T03000181  RH  049%=      5-min Rain = 0
KTH1 241743Z 19009G16KT 30/18 A2982 RMK A01 T03010180  RH  048%=      5-min Rain = 0
KTH1 241744Z 19012G19KT 30/18 A2982 RMK A01 T03030180  RH  048%=      5-min Rain = 0
KTH1 241745Z 18010G17KT 30/18 A2982 RMK A01 T03030178  RH  047%=      5-min Rain = 0
KTH1 241746Z 19009KT 30/18 A2982 RMK A01 T03030180  RH  048%=      5-min Rain = 0
KTH1 241747Z 19010KT 30/18 A2982 RMK A01 T03040180  RH  048%=      5-min Rain = 0
KTH1 241748Z 18011G16KT 30/18 A2982 RMK A01 T03040180  RH  047%=      5-min Rain = 0
KTH1 241749Z 16014G20KT 31/18 A2982 RMK A01 T03050178  RH  047%=      5-min Rain = 0
KTH1 241750Z 16012KT 30/18 A2982 RMK A01 T03040179  RH  047%=      5-min Rain = 0
KTH1 241751Z 16014KT 30/18 A2982 RMK A01 T03040179  RH  047%=      5-min Rain = 0
KTH1 241752Z 17010KT 30/18 A2982 RMK A01 T03030179  RH  047%=      5-min Rain = 0
KTH1 241753Z 17012G18KT 30/18 A2982 RMK A01 T03030181  RH  048%=      5-min Rain = 0
KTH1 241754Z 18010G15KT 30/18 A2982 RMK A01 T03030181  RH  048%=      5-min Rain = 0
KTH1 241755Z 19010KT 30/18 A2982 RMK A01 T03040178  RH  047%=      5-min Rain = 0
KTH1 241756Z 20008G13KT 31/18 A2981 RMK A01 T03050181  RH  048%=      5-min Rain = 0
KTH1 241757Z 19010G15KT 31/18 A2981 RMK A01 T03060178  RH  046%=      5-min Rain = 0
KTH1 241758Z 19009G14KT 31/18 A2981 RMK A01 T03060180  RH  047%=      5-min Rain = 0
KTH1 241759Z 19007KT 31/18 A2981 RMK A01 T03080184  RH  048%=      5-min Rain = 0
KTH1 241800Z 18009G16KT 31/18 A2981 RMK A01 T03100184  RH  047%=      5-min Rain = 0
KTH1 241801Z 17012KT 31/18 A2981 RMK A01 T03120182  RH  046%=      5-min Rain = 0
KTH1 241802Z 17012KT 31/18 A2981 RMK A01 T03090179  RH  046%=      5-min Rain = 0
KTH1 241803Z 18012G20KT 31/18 A2981 RMK A01 T03070183  RH  048%=      5-min Rain = 0
KTH1 241804Z 18013KT 31/18 A2981 RMK A01 T03060179  RH  046%=      5-min Rain = 0
KTH1 241805Z 16010KT 31/18 A2981 RMK A01 T03050180  RH  047%=      5-min Rain = 0
KTH1 241806Z 18010KT 31/18 A2981 RMK A01 T03060181  RH  047%=      5-min Rain = 0
KTH1 241807Z 17011G18KT 31/18 A2981 RMK A01 T03060183  RH  048%=      5-min Rain = 0
KTH1 241808Z 18015G21KT 31/18 A2981 RMK A01 T03080182  RH  047%=      5-min Rain = 0
KTH1 241809Z 17013KT 31/18 A2981 RMK A01 T03080179  RH  046%=      5-min Rain = 0
KTH1 241810Z 16010G15KT 31/18 A2981 RMK A01 T03070181  RH  047%=      5-min Rain = 0
KTH1 241811Z 18008KT 31/18 A2981 RMK A01 T03070182  RH  047%=      5-min Rain = 0
KTH1 241812Z 19013KT 31/18 A2981 RMK A01 T03090182  RH  047%=      5-min Rain = 0
KTH1 241813Z 17013G20KT 31/18 A2981 RMK A01 T03100181  RH  046%=      5-min Rain = 0
KTH1 241814Z 17013G19KT 31/18 A2981 RMK A01 T03090179  RH  046%=      5-min Rain = 0
KTH1 241815Z 15012G19KT 31/18 A2981 RMK A01 T03080181  RH  047%=      5-min Rain = 0
KTH1 241816Z 16013G18KT 31/18 A2981 RMK A01 T03080180  RH  046%=      5-min Rain = 0
KTH1 241817Z 17010G15KT 31/18 A298 RMK A01 T03060179  RH  047%=      5-min Rain = 0
KTH1 241818Z 17009G14KT 31/18 A298 RMK A01 T03050180  RH  047%=      5-min Rain = 0
KTH1 241819Z 18014KT 31/18 A298 RMK A01 T03060179  RH  047%=      5-min Rain = 0
KTH1 241820Z 19013KT 31/18 A298 RMK A01 T03070177  RH  046%=      5-min Rain = 0
KTH1 241821Z 20008G13KT 31/18 A298 RMK A01 T03070178  RH  046%=      5-min Rain = 0
KTH1 241822Z 19011G19KT 31/18 A298 RMK A01 T03090182  RH  047%=      5-min Rain = 0
KTH1 241823Z 18010KT 31/19 A298 RMK A01 T03110185  RH  047%=      5-min Rain = 0
KTH1 241824Z 18008G13KT 31/18 A298 RMK A01 T03130184  RH  046%=      5-min Rain = 0
KTH1 241825Z 18008G13KT 31/19 A298 RMK A01 T03140188  RH  047%=      5-min Rain = 0
KTH1 241826Z 16007G13KT 32/19 A298 RMK A01 T03150186  RH  046%=      5-min Rain = 0
KTH1 241827Z 16015G20KT 32/18 A298 RMK A01 T03160183  RH  045%=      5-min Rain = 0
KTH1 241828Z 16012KT 32/18 A298 RMK A01 T03160181  RH  045%=      5-min Rain = 0
KTH1 241829Z 17015G22KT 31/18 A298 RMK A01 T03140177  RH  044%=      5-min Rain = 0
KTH1 241830Z 16011KT 31/18 A298 RMK A01 T03110178  RH  045%=      5-min Rain = 0
KTH1 241831Z 18011G16KT 31/18 A298 RMK A01 T03100180  RH  046%=      5-min Rain = 0
KTH1 241832Z 17009KT 31/18 A298 RMK A01 T03110184  RH  047%=      5-min Rain = 0
KTH1 241833Z 15012KT 31/18 A298 RMK A01 T03130181  RH  045%=      5-min Rain = 0
KTH1 241834Z 16012KT 31/18 A298 RMK A01 T03120179  RH  045%=      5-min Rain = 0
KTH1 241835Z 17008KT 31/18 A298 RMK A01 T03110184  RH  047%=      5-min Rain = 0
KTH1 241836Z 16011G18KT 31/19 A298 RMK A01 T03130186  RH  047%=      5-min Rain = 0
KTH1 241837Z 16012G17KT 32/18 A2979 RMK A01 T03160180  RH  045%=      5-min Rain = 0
KTH1 241838Z 15012G18KT 32/18 A2979 RMK A01 T03150182  RH  045%=      5-min Rain = 0
KTH1 241839Z 16015KT 31/18 A2979 RMK A01 T03140179  RH  045%=      5-min Rain = 0
KTH1 241840Z 17010G16KT 31/18 A2979 RMK A01 T03130182  RH  046%=      5-min Rain = 0
KTH1 241841Z 17013KT 31/18 A2979 RMK A01 T03130183  RH  046%=      5-min Rain = 0
KTH1 241842Z 15013KT 31/18 A2979 RMK A01 T03140181  RH  045%=      5-min Rain = 0
KTH1 241843Z 17013KT 31/18 A2979 RMK A01 T03140180  RH  045%=      5-min Rain = 0
KTH1 241844Z 16014KT 31/18 A2979 RMK A01 T03130180  RH  045%=      5-min Rain = 0
KTH1 241845Z 18012G19KT 31/18 A2979 RMK A01 T03130181  RH  045%=      5-min Rain = 0
KTH1 241846Z 18011KT 31/18 A2979 RMK A01 T03130182  RH  046%=      5-min Rain = 0
KTH1 241847Z 19009G15KT 32/18 A2979 RMK A01 T03150181  RH  045%=      5-min Rain = 0
KTH1 241848Z 20011KT 32/18 A2979 RMK A01 T03160180  RH  044%=      5-min Rain = 0
KTH1 241849Z 19009KT 32/18 A2978 RMK A01 T03160179  RH  044%=      5-min Rain = 0
KTH1 241850Z 19008KT 32/18 A2978 RMK A01 T03150183  RH  045%=      5-min Rain = 0
KTH1 241851Z 17010G18KT 32/18 A2978 RMK A01 T03150184  RH  046%=      5-min Rain = 0
KTH1 241852Z 17015KT 32/18 A2978 RMK A01 T03170182  RH  045%=      5-min Rain = 0
KTH1 241853Z 17013G19KT 32/18 A2978 RMK A01 T03170179  RH  044%=      5-min Rain = 0
KTH1 241854Z 17015KT 32/18 A2978 RMK A01 T03150176  RH  043%=      5-min Rain = 0
KTH1 241855Z 15011G16KT 31/18 A2978 RMK A01 T03130179  RH  045%=      5-min Rain = 0
KTH1 241856Z 16013KT 31/18 A2978 RMK A01 T03120180  RH  045%=      5-min Rain = 0
KTH1 241857Z 16015G20KT 31/18 A2978 RMK A01 T03140181  RH  045%=      5-min Rain = 0
KTH1 241858Z 16013KT 32/18 A2978 RMK A01 T03150180  RH  045%=      5-min Rain = 0
KTH1 241859Z 16012KT 31/18 A2978 RMK A01 T03140179  RH  045%=      5-min Rain = 0
KTH1 241900Z 15010G15KT 32/18 A2978 RMK A01 T03150180  RH  045%=      5-min Rain = 0
KTH1 241901Z 15012G17KT 32/18 A2978 RMK A01 T03160181  RH  045%=      5-min Rain = 0
KTH1 241902Z 18007KT 32/18 A2978 RMK A01 T03170182  RH  045%=      5-min Rain = 0
KTH1 241903Z 17008KT 32/18 A2978 RMK A01 T03180182  RH  044%=      5-min Rain = 0
KTH1 241904Z 17007KT 32/18 A2978 RMK A01 T03190183  RH  044%=      5-min Rain = 0
KTH1 241905Z 18008KT 32/19 A2978 RMK A01 T03210189  RH  046%=      5-min Rain = 0
KTH1 241906Z 19008KT 33/19 A2978 RMK A01 T03250188  RH  044%=      5-min Rain = 0
KTH1 241907Z 18011KT 33/18 A2978 RMK A01 T03260183  RH  043%=      5-min Rain = 0
KTH1 241908Z 19012KT 32/18 A2978 RMK A01 T03230180  RH  043%=      5-min Rain = 0
KTH1 241909Z 17010G15KT 32/18 A2977 RMK A01 T03220178  RH  042%=      5-min Rain = 0
KTH1 241910Z 16007KT 32/18 A2977 RMK A01 T03210180  RH  043%=      5-min Rain = 0
KTH1 241911Z 17007KT 32/18 A2977 RMK A01 T03220180  RH  043%=      5-min Rain = 0
KTH1 241912Z 15007G12KT 32/18 A2977 RMK A01 T03220178  RH  042%=      5-min Rain = 0
KTH1 241913Z 15012KT 32/18 A2977 RMK A01 T03220183  RH  044%=      5-min Rain = 0
KTH1 241914Z 18006G12KT 32/18 A2977 RMK A01 T03220184  RH  044%=      5-min Rain = 0
KTH1 241915Z 20013KT 33/18 A2977 RMK A01 T03250184  RH  043%=      5-min Rain = 0
KTH1 241916Z 20009G14KT 33/18 A2977 RMK A01 T03250181  RH  043%=      5-min Rain = 0
KTH1 241917Z 21009G15KT 32/18 A2977 RMK A01 T03240178  RH  042%=      5-min Rain = 0
KTH1 241918Z 21011G16KT 32/18 A2977 RMK A01 T03240177  RH  042%=      5-min Rain = 0
KTH1 241919Z 20011G16KT 32/18 A2977 RMK A01 T03230177  RH  042%=      5-min Rain = 0
KTH1 241920Z 19009KT 32/18 A2977 RMK A01 T03220180  RH  043%=      5-min Rain = 0
KTH1 241921Z 18010G17KT 32/18 A2977 RMK A01 T03220182  RH  043%=      5-min Rain = 0
KTH1 241922Z 17012G18KT 32/18 A2977 RMK A01 T03230179  RH  042%=      5-min Rain = 0
KTH1 241923Z 17010G16KT 32/18 A2976 RMK A01 T03230179  RH  042%=      5-min Rain = 0
KTH1 241924Z 17011G17KT 32/18 A2976 RMK A01 T03240178  RH  042%=      5-min Rain = 0
KTH1 241925Z 16012G20KT 32/18 A2976 RMK A01 T03240178  RH  042%=      5-min Rain = 0
KTH1 241926Z 17014KT 33/18 A2976 RMK A01 T03250178  RH  042%=      5-min Rain = 0
KTH1 241927Z 17013G18KT 33/18 A2976 RMK A01 T03250176  RH  041%=      5-min Rain = 0
KTH1 241928Z 16013KT 32/18 A2976 RMK A01 T03240175  RH  041%=      5-min Rain = 0
KTH1 241929Z 17010G16KT 32/18 A2976 RMK A01 T03240179  RH  042%=      5-min Rain = 0
KTH1 241930Z 15007KT 33/18 A2976 RMK A01 T03250179  RH  042%=      5-min Rain = 0
KTH1 241931Z 16009KT 33/18 A2976 RMK A01 T03270182  RH  042%=      5-min Rain = 0
KTH1 241932Z 15011KT 33/18 A2976 RMK A01 T03280178  RH  041%=      5-min Rain = 0
KTH1 241933Z 15009G14KT 33/18 A2976 RMK A01 T03270181  RH  042%=      5-min Rain = 0
KTH1 241934Z 17009KT 33/18 A2975 RMK A01 T03260181  RH  042%=      5-min Rain = 0
KTH1 241935Z 17010KT 33/18 A2975 RMK A01 T03270178  RH  041%=      5-min Rain = 0
KTH1 241936Z 16012G20KT 33/18 A2975 RMK A01 T03260181  RH  042%=      5-min Rain = 0
KTH1 241937Z 17014G19KT 33/18 A2975 RMK A01 T03260176  RH  041%=      5-min Rain = 0
KTH1 241938Z 17009G15KT 33/18 A2975 RMK A01 T03250178  RH  042%=      5-min Rain = 0
KTH1 241939Z 16012KT 33/18 A2975 RMK A01 T03250178  RH  042%=      5-min Rain = 0
KTH1 241940Z 17012G17KT 33/18 A2975 RMK A01 T03250177  RH  041%=      5-min Rain = 0
KTH1 241941Z 15009KT 33/18 A2975 RMK A01 T03250181  RH  042%=      5-min Rain = 0
KTH1 241942Z 18013G19KT 33/18 A2975 RMK A01 T03280180  RH  042%=      5-min Rain = 0
KTH1 241943Z 19011G17KT 33/18 A2975 RMK A01 T03290180  RH  041%=      5-min Rain = 0
KTH1 241944Z 18010G15KT 33/18 A2975 RMK A01 T03300178  RH  040%=      5-min Rain = 0
KTH1 241945Z 19010KT 33/18 A2975 RMK A01 T03300177  RH  040%=      5-min Rain = 0
KTH1 241946Z 19012KT 33/17 A2975 RMK A01 T03280173  RH  039%=      5-min Rain = 0
KTH1 241947Z 19011KT 33/17 A2975 RMK A01 T03280174  RH  040%=      5-min Rain = 0
KTH1 241948Z 18012KT 33/17 A2975 RMK A01 T03280172  RH  039%=      5-min Rain = 0
KTH1 241949Z 17010KT 33/17 A2975 RMK A01 T03280171  RH  039%=      5-min Rain = 0
KTH1 241950Z 17013KT 33/18 A2975 RMK A01 T03270175  RH  040%=      5-min Rain = 0
KTH1 241951Z 17013G18KT 33/18 A2975 RMK A01 T03270175  RH  040%=      5-min Rain = 0
KTH1 241952Z 18012KT 33/17 A2975 RMK A01 T03270173  RH  040%=      5-min Rain = 0
KTH1 241953Z 18012KT 33/18 A2975 RMK A01 T03270176  RH  041%=      5-min Rain = 0
KTH1 241954Z 17011KT 33/18 A2975 RMK A01 T03280176  RH  040%=      5-min Rain = 0
KTH1 241955Z 17011G18KT 33/18 A2975 RMK A01 T03290179  RH  041%=      5-min Rain = 0
KTH1 241956Z 17010G15KT 33/18 A2975 RMK A01 T03310176  RH  040%=      5-min Rain = 0
KTH1 241957Z 16012KT 33/18 A2975 RMK A01 T03300176  RH  040%=      5-min Rain = 0
KTH1 241958Z 15011KT 33/18 A2975 RMK A01 T03310179  RH  040%=      5-min Rain = 0
KTH1 241959Z 17011KT 33/18 A2974 RMK A01 T03310177  RH  040%=      5-min Rain = 0
KTH1 242000Z 17008KT 33/18 A2974 RMK A01 T03310178  RH  040%=      5-min Rain = 0
KTH1 242001Z 20007KT 33/18 A2974 RMK A01 T03310183  RH  041%=      5-min Rain = 0
KTH1 242002Z 19010KT 33/18 A2974 RMK A01 T03330182  RH  041%=      5-min Rain = 0
KTH1 242003Z 20008G13KT 33/18 A2974 RMK A01 T03330178  RH  040%=      5-min Rain = 0
KTH1 242004Z 20012KT 33/18 A2974 RMK A01 T03310178  RH  040%=      5-min Rain = 0
KTH1 242005Z 19010KT 33/18 A2974 RMK A01 T03290176  RH  040%=      5-min Rain = 0
KTH1 242006Z 18008G13KT 33/18 A2974 RMK A01 T03280181  RH  042%=      5-min Rain = 0
KTH1 242007Z 16008KT 33/18 A2974 RMK A01 T03290181  RH  042%=      5-min Rain = 0
KTH1 242008Z 15010G18KT 33/18 A2974 RMK A01 T03300182  RH  041%=      5-min Rain = 0
KTH1 242009Z 16011G17KT 33/18 A2974 RMK A01 T03300183  RH  042%=      5-min Rain = 0
KTH1 242010Z 16010G16KT 33/19 A2974 RMK A01 T03320185  RH  042%=      5-min Rain = 0
KTH1 242011Z 17013KT 33/18 A2974 RMK A01 T03330178  RH  040%=      5-min Rain = 0
KTH1 242012Z 17011KT 33/18 A2974 RMK A01 T03300177  RH  040%=      5-min Rain = 0
KTH1 242013Z 17009KT 33/18 A2974 RMK A01 T03290178  RH  041%=      5-min Rain = 0
KTH1 242014Z 16007KT 33/18 A2973 RMK A01 T03290180  RH  041%=      5-min Rain = 0
KTH1 242015Z 16008G13KT 33/18 A2973 RMK A01 T03300182  RH  042%=      5-min Rain = 0
KTH1 242016Z 16009KT 33/18 A2973 RMK A01 T03310180  RH  041%=      5-min Rain = 0
KTH1 242017Z 16009KT 33/18 A2973 RMK A01 T03310184  RH  042%=      5-min Rain = 0
KTH1 242018Z 16009G14KT 33/18 A2973 RMK A01 T03320184  RH  042%=      5-min Rain = 0
KTH1 242019Z 18009KT 33/19 A2973 RMK A01 T03340186  RH  042%=      5-min Rain = 0
KTH1 242020Z 17007KT 34/19 A2973 RMK A01 T03350187  RH  041%=      5-min Rain = 0
KTH1 242021Z 15013KT 34/19 A2973 RMK A01 T03360187  RH  041%=      5-min Rain = 0
KTH1 242022Z 16013KT 34/18 A2973 RMK A01 T03360180  RH  040%=      5-min Rain = 0
KTH1 242023Z 18009G14KT 33/18 A2973 RMK A01 T03330183  RH  041%=      5-min Rain = 0
KTH1 242024Z 18008G14KT 33/19 A2973 RMK A01 T03330185  RH  042%=      5-min Rain = 0
KTH1 242025Z 18011KT 33/18 A2973 RMK A01 T03330183  RH  041%=      5-min Rain = 0
KTH1 242026Z 15012KT 33/19 A2973 RMK A01 T03340185  RH  041%=      5-min Rain = 0
KTH1 242027Z 16012KT 33/18 A2973 RMK A01 T03340179  RH  040%=      5-min Rain = 0
KTH1 242028Z 16014G19KT 33/18 A2973 RMK A01 T03310179  RH  041%=      5-min Rain = 0
KTH1 242029Z 16015KT 33/18 A2973 RMK A01 T03300180  RH  041%=      5-min Rain = 0
KTH1 242030Z 17013KT 33/18 A2973 RMK A01 T03290181  RH  042%=      5-min Rain = 0
KTH1 242031Z 17014KT 33/18 A2973 RMK A01 T03280180  RH  041%=      5-min Rain = 0
KTH1 242032Z 17011KT 33/18 A2973 RMK A01 T03250181  RH  042%=      5-min Rain = 0
KTH1 242033Z 18010G15KT 33/18 A2973 RMK A01 T03250181  RH  043%=      5-min Rain = 0
KTH1 242034Z 18010G18KT 33/19 A2973 RMK A01 T03280185  RH  043%=      5-min Rain = 0
KTH1 242035Z 19014G19KT 33/18 A2973 RMK A01 T03310182  RH  041%=      5-min Rain = 0
KTH1 242036Z 18010KT 33/18 A2973 RMK A01 T03320182  RH  041%=      5-min Rain = 0
KTH1 242037Z 18009KT 33/19 A2973 RMK A01 T03340186  RH  042%=      5-min Rain = 0
KTH1 242038Z 17009G15KT 34/19 A2973 RMK A01 T03360188  RH  042%=      5-min Rain = 0
KTH1 242039Z 17010G17KT 34/19 A2973 RMK A01 T03380187  RH  041%=      5-min Rain = 0
KTH1 242040Z 18011KT 34/19 A2973 RMK A01 T03380185  RH  040%=      5-min Rain = 0
KTH1 242041Z 19010G15KT 34/19 A2973 RMK A01 T03370185  RH  041%=      5-min Rain = 0
KTH1 242042Z 18008KT 34/19 A2973 RMK A01 T03370187  RH  041%=      5-min Rain = 0
KTH1 242043Z 17008KT 34/18 A2973 RMK A01 T03370184  RH  041%=      5-min Rain = 0
KTH1 242044Z 17004KT 34/19 A2973 RMK A01 T03360187  RH  041%=      5-min Rain = 0
KTH1 242045Z 18008G13KT 34/19 A2973 RMK A01 T03360188  RH  042%=      5-min Rain = 0
KTH1 242046Z 18008KT 34/19 A2972 RMK A01 T03360185  RH  041%=      5-min Rain = 0
KTH1 242047Z 17009KT 33/18 A2972 RMK A01 T03330182  RH  041%=      5-min Rain = 0
KTH1 242048Z 16010KT 33/18 A2972 RMK A01 T03290184  RH  042%=      5-min Rain = 0
KTH1 242049Z 15010KT 33/18 A2972 RMK A01 T03270184  RH  043%=      5-min Rain = 0
KTH1 242050Z 15008KT 32/18 A2972 RMK A01 T03240181  RH  042%=      5-min Rain = 0
KTH1 242051Z 16009KT 33/18 A2972 RMK A01 T03250183  RH  043%=      5-min Rain = 0
KTH1 242052Z 16008KT 33/18 A2972 RMK A01 T03280184  RH  042%=      5-min Rain = 0
KTH1 242053Z 17006KT 33/19 A2972 RMK A01 T03320189  RH  043%=      5-min Rain = 0
KTH1 242054Z 17006G12KT 34/19 A2972 RMK A01 T03350191  RH  043%=      5-min Rain = 0
KTH1 242055Z 16013KT 34/19 A2972 RMK A01 T03380186  RH  041%=      5-min Rain = 0
KTH1 242056Z 16012KT 34/18 A2972 RMK A01 T03370183  RH  040%=      5-min Rain = 0
KTH1 242057Z 16013KT 33/18 A2972 RMK A01 T03330181  RH  040%=      5-min Rain = 0
KTH1 242058Z 16014G19KT 33/18 A2972 RMK A01 T03300180  RH  041%=      5-min Rain = 0
KTH1 242059Z 16012KT 33/18 A2972 RMK A01 T03270180  RH  042%=      5-min Rain = 0
KTH1 242100Z 16012KT 33/18 A2972 RMK A01 T03260180  RH  042%=      5-min Rain = 0
KTH1 242101Z 16008G13KT 33/18 A2972 RMK A01 T03280183  RH  042%=      5-min Rain = 0
KTH1 242102Z 17008G16KT 33/19 A2972 RMK A01 T03320187  RH  042%=      5-min Rain = 0
KTH1 242103Z 16016KT 34/18 A2972 RMK A01 T03350182  RH  040%=      5-min Rain = 0
KTH1 242104Z 16013G18KT 34/18 A2972 RMK A01 T03350182  RH  040%=      5-min Rain = 0
KTH1 242105Z 17010KT 34/18 A2972 RMK A01 T03350184  RH  041%=      5-min Rain = 0
KTH1 242106Z 18008KT 34/19 A2972 RMK A01 T03360186  RH  041%=      5-min Rain = 0
KTH1 242107Z 17007KT 34/19 A2972 RMK A01 T03380185  RH  040%=      5-min Rain = 0
KTH1 242108Z 19012KT 34/19 A2972 RMK A01 T03390185  RH  040%=      5-min Rain = 0
KTH1 242109Z 16011G16KT 34/18 A2971 RMK A01 T03390183  RH  040%=      5-min Rain = 0
KTH1 242110Z 16012G18KT 34/19 A2971 RMK A01 T03380186  RH  041%=      5-min Rain = 0
KTH1 242111Z 16010G15KT 34/19 A2971 RMK A01 T03380185  RH  040%=      5-min Rain = 0
KTH1 242112Z 16010G15KT 34/19 A2971 RMK A01 T03380185  RH  040%=      5-min Rain = 0
KTH1 242113Z 18005KT 34/19 A2971 RMK A01 T03370185  RH  041%=      5-min Rain = 0
KTH1 242114Z 17010G15KT 34/19 A2971 RMK A01 T03350185  RH  041%=      5-min Rain = 0
KTH1 242115Z 19009G15KT 33/19 A2971 RMK A01 T03320185  RH  042%=      5-min Rain = 0
KTH1 242116Z 19013KT 33/18 A2971 RMK A01 T03300183  RH  042%=      5-min Rain = 0
KTH1 242117Z 20010G15KT 33/18 A2971 RMK A01 T03300184  RH  042%=      5-min Rain = 0
KTH1 242118Z 18010G15KT 33/19 A2971 RMK A01 T03340186  RH  042%=      5-min Rain = 0
KTH1 242119Z 15008KT 34/19 A2971 RMK A01 T03370189  RH  042%=      5-min Rain = 0
KTH1 242120Z 15011KT 34/19 A2971 RMK A01 T03380189  RH  041%=      5-min Rain = 0
KTH1 242121Z 16010KT 34/19 A2971 RMK A01 T03380189  RH  041%=      5-min Rain = 0
KTH1 242122Z 15010G15KT 34/19 A2971 RMK A01 T03390189  RH  041%=      5-min Rain = 0
KTH1 242123Z 16013KT 34/18 A2971 RMK A01 T03410183  RH  039%=      5-min Rain = 0
KTH1 242124Z 16008KT 34/18 A2971 RMK A01 T03410184  RH  040%=      5-min Rain = 0
KTH1 242125Z 17007KT 34/19 A2971 RMK A01 T03410187  RH  040%=      5-min Rain = 0
KTH1 242126Z 16009KT 34/19 A2971 RMK A01 T03430188  RH  040%=      5-min Rain = 0
KTH1 242127Z 15008KT 34/18 A297 RMK A01 T03430183  RH  039%=      5-min Rain = 0
KTH1 242128Z 15008G13KT 34/18 A297 RMK A01 T03420183  RH  039%=      5-min Rain = 0
KTH1 242129Z 19004KT 34/18 A297 RMK A01 T03400184  RH  040%=      5-min Rain = 0
KTH1 242130Z 18008KT 34/19 A297 RMK A01 T03380187  RH  041%=      5-min Rain = 0
KTH1 242131Z 18006KT 34/19 A297 RMK A01 T03380187  RH  041%=      5-min Rain = 0
KTH1 242132Z 19010KT 34/19 A297 RMK A01 T03390186  RH  041%=      5-min Rain = 0
KTH1 242133Z 19008G14KT 34/19 A297 RMK A01 T03400187  RH  041%=      5-min Rain = 0
KTH1 242134Z 19009KT 34/18 A297 RMK A01 T03390181  RH  039%=      5-min Rain = 0
KTH1 242135Z 18008KT 33/18 A297 RMK A01 T03340181  RH  040%=      5-min Rain = 0
KTH1 242136Z 16010KT 33/18 A297 RMK A01 T03300183  RH  042%=      5-min Rain = 0
KTH1 242137Z 14010KT 33/19 A297 RMK A01 T03260187  RH  044%=      5-min Rain = 0
KTH1 242138Z 13011KT 32/19 A297 RMK A01 T03230187  RH  045%=      5-min Rain = 0
KTH1 242139Z 13008G13KT 32/19 A297 RMK A01 T03210187  RH  045%=      5-min Rain = 0
KTH1 242140Z 13010KT 32/19 A297 RMK A01 T03190188  RH  046%=      5-min Rain = 0
KTH1 242141Z 14009G14KT 32/19 A297 RMK A01 T03180189  RH  046%=      5-min Rain = 0
KTH1 242142Z 15009KT 32/19 A297 RMK A01 T03170189  RH  047%=      5-min Rain = 0
KTH1 242143Z 14007KT 32/19 A297 RMK A01 T03170190  RH  047%=      5-min Rain = 0
KTH1 242144Z 14007KT 32/19 A297 RMK A01 T03170193  RH  048%=      5-min Rain = 0
KTH1 242145Z 16009KT 32/19 A297 RMK A01 T03170190  RH  047%=      5-min Rain = 0
KTH1 242146Z 14008KT 32/19 A297 RMK A01 T03190189  RH  046%=      5-min Rain = 0
KTH1 242147Z 14006KT 32/20 A297 RMK A01 T03240195  RH  047%=      5-min Rain = 0
KTH1 242148Z 13008KT 33/20 A297 RMK A01 T03300197  RH  046%=      5-min Rain = 0
KTH1 242149Z 14011KT 33/19 A297 RMK A01 T03340193  RH  043%=      5-min Rain = 0
KTH1 242150Z 14014KT 33/19 A297 RMK A01 T03330190  RH  043%=      5-min Rain = 0
KTH1 242151Z 14011G16KT 33/19 A297 RMK A01 T03290190  RH  044%=      5-min Rain = 0
KTH1 242152Z 14013KT 33/19 A297 RMK A01 T03260190  RH  045%=      5-min Rain = 0
KTH1 242153Z 15012KT 32/19 A297 RMK A01 T03240189  RH  045%=      5-min Rain = 0
KTH1 242154Z 14010KT 32/19 A297 RMK A01 T03230192  RH  046%=      5-min Rain = 0
KTH1 242155Z 13010KT 32/19 A297 RMK A01 T03220192  RH  046%=      5-min Rain = 0
KTH1 242156Z 13010KT 32/19 A2969 RMK A01 T03210191  RH  046%=      5-min Rain = 0
KTH1 242157Z 13012KT 32/19 A2969 RMK A01 T03190191  RH  047%=      5-min Rain = 0
KTH1 242158Z 13010KT 32/19 A297 RMK A01 T03180191  RH  047%=      5-min Rain = 0
KTH1 242159Z 12009KT 32/19 A2969 RMK A01 T03170191  RH  047%=      5-min Rain = 0
KTH1 242200Z 12006KT 32/19 A2969 RMK A01 T03160192  RH  048%=      5-min Rain = 0
KTH1 242201Z 13008KT 32/19 A2969 RMK A01 T03160194  RH  048%=      5-min Rain = 0
KTH1 242202Z 13009KT 32/19 A2969 RMK A01 T03160194  RH  049%=      5-min Rain = 0
KTH1 242203Z 13010KT 32/19 A2969 RMK A01 T03150192  RH  048%=      5-min Rain = 0
KTH1 242204Z 14010KT 32/19 A2969 RMK A01 T03150192  RH  048%=      5-min Rain = 0
KTH1 242205Z 13011KT 32/19 A2969 RMK A01 T03150192  RH  048%=      5-min Rain = 0
KTH1 242206Z 13014KT 32/19 A2969 RMK A01 T03150187  RH  047%=      5-min Rain = 0
KTH1 242207Z 12011KT 31/19 A2969 RMK A01 T03140187  RH  047%=      5-min Rain = 0
KTH1 242208Z 13009G15KT 31/19 A2969 RMK A01 T03140189  RH  047%=      5-min Rain = 0
KTH1 242209Z 14012G18KT 31/19 A2969 RMK A01 T03140188  RH  047%=      5-min Rain = 0
KTH1 242210Z 13010G15KT 31/19 A2969 RMK A01 T03130188  RH  047%=      5-min Rain = 0
KTH1 242211Z 13010KT 31/19 A2969 RMK A01 T03130190  RH  048%=      5-min Rain = 0
KTH1 242212Z 13010KT 31/19 A2968 RMK A01 T03120191  RH  048%=      5-min Rain = 0
KTH1 242213Z 12010KT 31/19 A2968 RMK A01 T03120190  RH  048%=      5-min Rain = 0
KTH1 242214Z 12009KT 31/19 A2968 RMK A01 T03120190  RH  048%=      5-min Rain = 0
KTH1 242215Z 13008KT 31/19 A2968 RMK A01 T03110191  RH  049%=      5-min Rain = 0
KTH1 242216Z 13008KT 31/19 A2968 RMK A01 T03110193  RH  049%=      5-min Rain = 0
KTH1 242217Z 13008KT 31/19 A2968 RMK A01 T03110191  RH  049%=      5-min Rain = 0
KTH1 242218Z 14006KT 31/19 A2968 RMK A01 T03120192  RH  049%=      5-min Rain = 0
KTH1 242219Z 14011G16KT 31/19 A2968 RMK A01 T03120192  RH  049%=      5-min Rain = 0
KTH1 242220Z 14011KT 31/19 A2968 RMK A01 T03130190  RH  048%=      5-min Rain = 0
KTH1 242221Z 13009KT 31/19 A2968 RMK A01 T03130189  RH  048%=      5-min Rain = 0
KTH1 242222Z 13010KT 31/19 A2968 RMK A01 T03130190  RH  048%=      5-min Rain = 0
KTH1 242223Z 13013KT 31/19 A2968 RMK A01 T03130188  RH  047%=      5-min Rain = 0
KTH1 242224Z 13014KT 31/19 A2968 RMK A01 T03120186  RH  047%=      5-min Rain = 0
KTH1 242225Z 14008KT 31/19 A2968 RMK A01 T03120187  RH  047%=      5-min Rain = 0
KTH1 242226Z 13009KT 31/19 A2968 RMK A01 T03120189  RH  048%=      5-min Rain = 0
KTH1 242227Z 13008KT 31/19 A2968 RMK A01 T03120190  RH  048%=      5-min Rain = 0
KTH1 242228Z 13009G14KT 31/19 A2968 RMK A01 T03120190  RH  048%=      5-min Rain = 0
KTH1 242229Z 13010KT 31/19 A2968 RMK A01 T03120187  RH  047%=      5-min Rain = 0
KTH1 242230Z 13010G15KT 31/19 A2968 RMK A01 T03120188  RH  048%=      5-min Rain = 0
KTH1 242231Z 14010KT 31/19 A2968 RMK A01 T03130187  RH  047%=      5-min Rain = 0
KTH1 242232Z 13008KT 32/19 A2968 RMK A01 T03150189  RH  047%=      5-min Rain = 0
KTH1 242233Z 13007KT 32/19 A2968 RMK A01 T03160191  RH  047%=      5-min Rain = 0
KTH1 242234Z 14010KT 32/19 A2968 RMK A01 T03180192  RH  047%=      5-min Rain = 0
KTH1 242235Z 13010KT 32/19 A2968 RMK A01 T03180190  RH  047%=      5-min Rain = 0
KTH1 242236Z 14012KT 32/19 A2967 RMK A01 T03180188  RH  046%=      5-min Rain = 0
KTH1 242237Z 13012G17KT 32/19 A2968 RMK A01 T03170186  RH  046%=      5-min Rain = 0
KTH1 242238Z 14013KT 32/19 A2967 RMK A01 T03170186  RH  046%=      5-min Rain = 0
KTH1 242239Z 14014KT 32/19 A2967 RMK A01 T03170186  RH  046%=      5-min Rain = 0
KTH1 242240Z 13010G15KT 32/19 A2968 RMK A01 T03180185  RH  045%=      5-min Rain = 0
KTH1 242241Z 13010G15KT 32/19 A2968 RMK A01 T03170188  RH  047%=      5-min Rain = 0
KTH1 242242Z 13011KT 32/19 A2967 RMK A01 T03160187  RH  046%=      5-min Rain = 0
KTH1 242243Z 13011KT 32/19 A2968 RMK A01 T03170186  RH  046%=      5-min Rain = 0
KTH1 242244Z 13007KT 32/19 A2968 RMK A01 T03180188  RH  046%=      5-min Rain = 0
KTH1 242245Z 13007KT 32/19 A2967 RMK A01 T03180192  RH  047%=      5-min Rain = 0
KTH1 242246Z 12011KT 32/19 A2967 RMK A01 T03180188  RH  046%=      5-min Rain = 0
KTH1 242247Z 13011KT 32/19 A2967 RMK A01 T03170185  RH  046%=      5-min Rain = 0
KTH1 242248Z 12009KT 32/19 A2967 RMK A01 T03160187  RH  046%=      5-min Rain = 0
KTH1 242249Z 11012KT 32/19 A2967 RMK A01 T03150185  RH  046%=      5-min Rain = 0
KTH1 242250Z 11011KT 32/18 A2967 RMK A01 T03150183  RH  045%=      5-min Rain = 0
KTH1 242251Z 11010G15KT 32/19 A2967 RMK A01 T03180187  RH  046%=      5-min Rain = 0
KTH1 242252Z 11009G14KT 32/19 A2967 RMK A01 T03210185  RH  045%=      5-min Rain = 0
KTH1 242253Z 12010KT 32/19 A2968 RMK A01 T03220186  RH  044%=      5-min Rain = 0
KTH1 242254Z 12010KT 32/19 A2967 RMK A01 T03230187  RH  044%=      5-min Rain = 0
KTH1 242255Z 13009KT 32/19 A2968 RMK A01 T03230187  RH  045%=      5-min Rain = 0
KTH1 242256Z 12012KT 32/19 A2968 RMK A01 T03220187  RH  045%=      5-min Rain = 0
KTH1 242257Z 13011KT 32/18 A2968 RMK A01 T03200184  RH  044%=      5-min Rain = 0
KTH1 242258Z 14014KT 32/19 A2968 RMK A01 T03190186  RH  045%=      5-min Rain = 0
KTH1 242259Z 12011KT 32/19 A2968 RMK A01 T03210187  RH  045%=      5-min Rain = 0
KTH1 242300Z 12013G18KT 32/19 A2968 RMK A01 T03240189  RH  045%=      5-min Rain = 0
KTH1 242301Z 12013KT 33/19 A2968 RMK A01 T03250185  RH  043%=      5-min Rain = 0
KTH1 242302Z 12012KT 33/19 A2968 RMK A01 T03250185  RH  043%=      5-min Rain = 0
KTH1 242303Z 12010G15KT 33/19 A2968 RMK A01 T03250186  RH  044%=      5-min Rain = 0
KTH1 242304Z 13011KT 32/19 A2968 RMK A01 T03240187  RH  044%=      5-min Rain = 0
KTH1 242305Z 13012KT 32/19 A2968 RMK A01 T03230186  RH  044%=      5-min Rain = 0
KTH1 242306Z 11012KT 32/19 A2968 RMK A01 T03230185  RH  044%=      5-min Rain = 0
KTH1 242307Z 13013G18KT 32/18 A2968 RMK A01 T03220184  RH  044%=      5-min Rain = 0
KTH1 242308Z 12011KT 32/19 A2968 RMK A01 T03220186  RH  045%=      5-min Rain = 0
KTH1 242309Z 13014KT 32/19 A2968 RMK A01 T03210187  RH  045%=      5-min Rain = 0
KTH1 242310Z 14012G17KT 32/19 A2968 RMK A01 T03180185  RH  045%=      5-min Rain = 0
KTH1 242311Z 14013G19KT 32/19 A2968 RMK A01 T03170185  RH  046%=      5-min Rain = 0
KTH1 242312Z 13011KT 32/19 A2968 RMK A01 T03160185  RH  046%=      5-min Rain = 0
KTH1 242313Z 14013KT 32/19 A2968 RMK A01 T03160185  RH  046%=      5-min Rain = 0
KTH1 242314Z 14014G19KT 32/18 A2968 RMK A01 T03160182  RH  045%=      5-min Rain = 0
KTH1 242315Z 14009KT 32/18 A2968 RMK A01 T03160184  RH  045%=      5-min Rain = 0
KTH1 242316Z 14008KT 32/19 A2968 RMK A01 T03150185  RH  046%=      5-min Rain = 0
KTH1 242317Z 13012G17KT 31/19 A2968 RMK A01 T03140185  RH  046%=      5-min Rain = 0
KTH1 242318Z 14014KT 31/18 A2968 RMK A01 T03140183  RH  046%=      5-min Rain = 0
KTH1 242319Z 14014G19KT 31/18 A2968 RMK A01 T03140182  RH  046%=      5-min Rain = 0
KTH1 242320Z 14015KT 31/18 A2968 RMK A01 T03130182  RH  046%=      5-min Rain = 0
KTH1 242321Z 13013G18KT 31/18 A2968 RMK A01 T03130182  RH  046%=      5-min Rain = 0
KTH1 242322Z 12016G22KT 31/18 A2968 RMK A01 T03130184  RH  046%=      5-min Rain = 0
KTH1 242323Z 12021G29KT 31/19 A2969 RMK A01 T03100192  RH  050%=      5-min Rain = 0
KTH1 242324Z 11023G32KT 30/19 A2969 RMK A01 T02950194  RH  055%=      5-min Rain = 0
KTH1 242325Z 12019G27KT 28/19 A2969 RMK A01 T02800193  RH  059%=      5-min Rain = 0
KTH1 242326Z 12018G25KT 27/19 A2969 RMK A01 T02710193  RH  062%=      5-min Rain = 0
KTH1 242327Z 12021G29KT 27/19 A2969 RMK A01 T02660191  RH  064%=      5-min Rain = 0
KTH1 242328Z 12022KT 26/19 A2969 RMK A01 T02620190  RH  064%=      5-min Rain = 0
KTH1 242329Z 12022G33KT 26/19 A2969 RMK A01 T02600189  RH  065%=      5-min Rain = 0
KTH1 242330Z 11025G34KT 26/19 A2969 RMK A01 T02580189  RH  066%=      5-min Rain = 0
KTH1 242331Z 12024G30KT 26/19 A2969 RMK A01 T02560189  RH  066%=      5-min Rain = 0
KTH1 242332Z 12023G28KT 25/19 A2969 RMK A01 T02540188  RH  067%=      5-min Rain = 0
KTH1 242333Z 12020G28KT 25/19 A2969 RMK A01 T02540189  RH  067%=      5-min Rain = 0
KTH1 242334Z 11017G26KT 25/19 A2969 RMK A01 T02540189  RH  068%=      5-min Rain = 0
KTH1 242335Z 11022G31KT 25/19 A2969 RMK A01 T02530189  RH  068%=      5-min Rain = 0
KTH1 242336Z 11021G29KT 25/19 A2969 RMK A01 T02520189  RH  068%=      5-min Rain = 0
KTH1 242337Z 12019G29KT 25/19 A2969 RMK A01 T02520188  RH  068%=      5-min Rain = 0
KTH1 242338Z 12021G28KT 25/19 A2969 RMK A01 T02510189  RH  068%=      5-min Rain = 0
KTH1 242339Z 12018G23KT 25/19 A2969 RMK A01 T02500188  RH  068%=      5-min Rain = 0
KTH1 242340Z 12020G28KT 25/19 A2969 RMK A01 T02500189  RH  069%=      5-min Rain = 0
KTH1 242341Z 12022G27KT 25/19 A2969 RMK A01 T02490188  RH  069%=      5-min Rain = 0
KTH1 242342Z 12019G29KT 25/19 A2969 RMK A01 T02490189  RH  069%=      5-min Rain = 0
KTH1 242343Z 12020KT 25/19 A2969 RMK A01 T02480188  RH  069%=      5-min Rain = 0
KTH1 242344Z 12016G21KT 25/19 A2968 RMK A01 T02480189  RH  069%=      5-min Rain = 0
KTH1 242345Z 12015G24KT 25/19 A2969 RMK A01 T02480189  RH  070%=      5-min Rain = 0
KTH1 242346Z 13012G19KT 25/19 A2968 RMK A01 T02480189  RH  070%=      5-min Rain = 0
KTH1 242347Z 13014G21KT 25/19 A2968 RMK A01 T02480189  RH  070%=      5-min Rain = 0
KTH1 242348Z 13016G22KT 25/19 A2968 RMK A01 T02480189  RH  069%=      5-min Rain = 0
KTH1 242349Z 13018G24KT 25/19 A2968 RMK A01 T02480188  RH  069%=      5-min Rain = 0
KTH1 242350Z 12017KT 25/19 A2969 RMK A01 T02490188  RH  069%=      5-min Rain = 0
KTH1 242351Z 13018G25KT 25/19 A2969 RMK A01 T02490188  RH  069%=      5-min Rain = 0
KTH1 242352Z 13014G21KT 25/19 A297 RMK A01 T02490188  RH  069%=      5-min Rain = 0
KTH1 242353Z 13016G21KT 25/19 A297 RMK A01 T02500189  RH  069%=      5-min Rain = 0
KTH1 242354Z 13018G26KT 25/19 A297 RMK A01 T02500189  RH  069%=      5-min Rain = 0
KTH1 242355Z 13020G28KT 25/19 A297 RMK A01 T02500188  RH  068%=      5-min Rain = 0
KTH1 242356Z 13017G25KT 25/19 A297 RMK A01 T02500188  RH  068%=      5-min Rain = 0
KTH1 242357Z 13019KT 25/19 A297 RMK A01 T02500188  RH  069%=      5-min Rain = 0
KTH1 242358Z 13011KT 25/19 A297 RMK A01 T02500189  RH  069%=      5-min Rain = 0
KTH1 242359Z 12011G19KT 25/19 A297 RMK A01 T02490190  RH  069%=      5-min Rain = 0
KTH1 250000Z 13019KT 25/19 A297 RMK A01 T02490190  RH  069%=      5-min Rain = 0
KTH1 250001Z 12015G22KT 25/19 A297 RMK A01 T02490189  RH  069%=      5-min Rain = 0
KTH1 250002Z 12018G23KT 25/19 A297 RMK A01 T02490189  RH  069%=      5-min Rain = 0
KTH1 250003Z 12016G21KT 25/19 A297 RMK A01 T02480189  RH  070%=      5-min Rain = 0
KTH1 250004Z 12016G22KT 25/19 A297 RMK A01 T02480189  RH  070%=      5-min Rain = 0
KTH1 250005Z 12015G20KT 25/19 A297 RMK A01 T02470189  RH  070%=      5-min Rain = 0
KTH1 250006Z 13017G23KT 25/19 A297 RMK A01 T02470189  RH  070%=      5-min Rain = 0
KTH1 250007Z 13015G21KT 25/19 A297 RMK A01 T02460189  RH  070%=      5-min Rain = 0
KTH1 250008Z 13016G24KT 25/19 A297 RMK A01 T02450188  RH  071%=      5-min Rain = 0
KTH1 250009Z 13021KT 25/19 A297 RMK A01 T02450188  RH  071%=      5-min Rain = 0
KTH1 250010Z 12018G23KT 24/19 A2969 RMK A01 T02440187  RH  071%=      5-min Rain = 0
KTH1 250011Z 13022G27KT 24/19 A2969 RMK A01 T02420187  RH  071%=      5-min Rain = 0
KTH1 250012Z 13022G30KT 24/19 A2969 RMK A01 T02410187  RH  071%=      5-min Rain = 0
KTH1 250013Z 13019G24KT 24/19 A2969 RMK A01 T02400187  RH  072%=      5-min Rain = 0
KTH1 250014Z 12018G28KT 24/19 A2969 RMK A01 T02390186  RH  072%=      5-min Rain = 0
KTH1 250015Z 13019G25KT 24/19 A2969 RMK A01 T02380186  RH  073%=      5-min Rain = 0
KTH1 250016Z 13015G24KT 24/19 A2969 RMK A01 T02360186  RH  073%=      5-min Rain = 0
KTH1 250017Z 14020G27KT 24/19 A2969 RMK A01 T02350186  RH  074%=      5-min Rain = 0
KTH1 250018Z 14016G21KT 23/19 A2969 RMK A01 T02340185  RH  074%=      5-min Rain = 0
KTH1 250019Z 13018G24KT 23/19 A2969 RMK A01 T02340185  RH  074%=      5-min Rain = 0
KTH1 250020Z 13017KT 23/18 A2969 RMK A01 T02330184  RH  074%=      5-min Rain = 0
KTH1 250021Z 13011KT 23/19 A2969 RMK A01 T02320185  RH  074%=      5-min Rain = 0
KTH1 250022Z 14013G19KT 23/19 A2969 RMK A01 T02320185  RH  075%=      5-min Rain = 0
KTH1 250023Z 13010G15KT 23/19 A2969 RMK A01 T02320185  RH  075%=      5-min Rain = 0
KTH1 250024Z 13014KT 23/19 A2969 RMK A01 T02310185  RH  075%=      5-min Rain = 0
KTH1 250025Z 13014KT 23/19 A2969 RMK A01 T02310185  RH  075%=      5-min Rain = 0
KTH1 250026Z 12013KT 23/19 A2969 RMK A01 T02300185  RH  076%=      5-min Rain = 0
KTH1 250027Z 12010KT 23/19 A2969 RMK A01 T02300186  RH  076%=      5-min Rain = 0
KTH1 250028Z 09006KT 23/19 A2969 RMK A01 T02300186  RH  077%=      5-min Rain = 0
KTH1 250029Z 10011G18KT 23/19 A2969 RMK A01 T02300189  RH  078%=      5-min Rain = 0
KTH1 250030Z 10010KT 23/19 A2969 RMK A01 T02290189  RH  078%=      5-min Rain = 0
KTH1 250031Z 09008G13KT 23/19 A297 RMK A01 T02280189  RH  079%=      5-min Rain = 0
KTH1 250032Z 10011KT 23/19 A297 RMK A01 T02270189  RH  079%=      5-min Rain = 0
KTH1 250033Z 10011KT 23/19 A297 RMK A01 T02270189  RH  079%=      5-min Rain = 0
KTH1 250034Z 11011KT 23/19 A2971 RMK A01 T02260188  RH  079%=      5-min Rain = 0
KTH1 250035Z 12012KT 23/19 A2971 RMK A01 T02260188  RH  079%=      5-min Rain = 0
KTH1 250036Z 11013G18KT 23/19 A2971 RMK A01 T02260188  RH  079%=      5-min Rain = 0
KTH1 250037Z 11011KT 23/19 A2971 RMK A01 T02260187  RH  079%=      5-min Rain = 0
KTH1 250038Z 12012KT 23/19 A2971 RMK A01 T02260187  RH  079%=      5-min Rain = 0
KTH1 250039Z 12010G18KT 23/19 A297 RMK A01 T02260186  RH  078%=      5-min Rain = 0
KTH1 250040Z 11010KT 23/19 A297 RMK A01 T02260186  RH  078%=      5-min Rain = 0
KTH1 250041Z 12009KT 23/19 A297 RMK A01 T02260185  RH  078%=      5-min Rain = 0
KTH1 250042Z 12010KT 23/19 A297 RMK A01 T02260186  RH  078%=      5-min Rain = 0
KTH1 250043Z 12010KT 23/19 A297 RMK A01 T02260185  RH  078%=      5-min Rain = 0
KTH1 250044Z 12009KT 23/18 A297 RMK A01 T02250184  RH  078%=      5-min Rain = 0
KTH1 250045Z 12009KT 23/18 A297 RMK A01 T02250184  RH  077%=      5-min Rain = 0
KTH1 250046Z 12010G15KT 23/18 A297 RMK A01 T02250184  RH  077%=      5-min Rain = 0
KTH1 250047Z 12010G15KT 23/18 A297 RMK A01 T02250183  RH  077%=      5-min Rain = 0
KTH1 250048Z 11010KT 23/18 A297 RMK A01 T02250183  RH  077%=      5-min Rain = 0
KTH1 250049Z 12010KT 23/18 A297 RMK A01 T02250182  RH  076%=      5-min Rain = 0
KTH1 250050Z 12010KT 23/18 A297 RMK A01 T02250182  RH  076%=      5-min Rain = 0
KTH1 250051Z 12012KT 23/18 A297 RMK A01 T02250181  RH  076%=      5-min Rain = 0
KTH1 250052Z 11012KT 23/18 A297 RMK A01 T02250179  RH  075%=      5-min Rain = 0
KTH1 250053Z 11011G16KT 23/18 A297 RMK A01 T02250178  RH  075%=      5-min Rain = 0
KTH1 250054Z 12010G15KT 23/18 A2969 RMK A01 T02250178  RH  075%=      5-min Rain = 0
KTH1 250055Z 12013KT 23/18 A2969 RMK A01 T02250177  RH  074%=      5-min Rain = 0
KTH1 250056Z 11014G20KT 23/18 A2969 RMK A01 T02250176  RH  074%=      5-min Rain = 0
KTH1 250057Z 12013G18KT 23/18 A2969 RMK A01 T02250175  RH  073%=      5-min Rain = 0
KTH1 250058Z 12013G18KT 23/18 A2969 RMK A01 T02250176  RH  074%=      5-min Rain = 0
KTH1 250059Z 12012KT 23/18 A2969 RMK A01 T02250176  RH  074%=      5-min Rain = 0
KTH1 250100Z 12011G16KT 23/18 A2969 RMK A01 T02250176  RH  074%=      5-min Rain = 0
KTH1 250101Z 11011G16KT 23/18 A2969 RMK A01 T02250177  RH  074%=      5-min Rain = 0
KTH1 250102Z 12011KT 23/18 A2969 RMK A01 T02250177  RH  074%=      5-min Rain = 0
KTH1 250103Z 12009G14KT 23/18 A2969 RMK A01 T02250178  RH  075%=      5-min Rain = 0
KTH1 250104Z 12008KT 22/18 A297 RMK A01 T02240178  RH  075%=      5-min Rain = 0
KTH1 250105Z 12010G15KT 22/18 A297 RMK A01 T02240178  RH  075%=      5-min Rain = 0
KTH1 250106Z 12011KT 22/18 A297 RMK A01 T02230178  RH  075%=      5-min Rain = 0
KTH1 250107Z 11010KT 22/18 A297 RMK A01 T02240178  RH  076%=      5-min Rain = 0
KTH1 250108Z 12008G13KT 22/18 A297 RMK A01 T02240179  RH  076%=      5-min Rain = 0
KTH1 250109Z 12011KT 22/18 A297 RMK A01 T02230179  RH  076%=      5-min Rain = 0
KTH1 250110Z 12011G16KT 22/18 A297 RMK A01 T02230178  RH  075%=      5-min Rain = 0
KTH1 250111Z 12009KT 22/18 A297 RMK A01 T02230177  RH  075%=      5-min Rain = 0
KTH1 250112Z 12012G18KT 22/18 A297 RMK A01 T02230176  RH  075%=      5-min Rain = 0
KTH1 250113Z 13010KT 22/18 A297 RMK A01 T02220175  RH  075%=      5-min Rain = 0
KTH1 250114Z 13010KT 22/18 A297 RMK A01 T02220175  RH  075%=      5-min Rain = 0
KTH1 250115Z 13013G19KT 22/17 A297 RMK A01 T02220174  RH  074%=      5-min Rain = 0
KTH1 250116Z 13013KT 22/17 A297 RMK A01 T02220173  RH  074%=      5-min Rain = 0
KTH1 250117Z 13012KT 22/17 A297 RMK A01 T02220172  RH  074%=      5-min Rain = 0
KTH1 250118Z 13013KT 22/17 A297 RMK A01 T02220172  RH  073%=      5-min Rain = 0
KTH1 250119Z 13011KT 22/17 A297 RMK A01 T02220172  RH  073%=      5-min Rain = 0
KTH1 250120Z 12012G20KT 22/17 A297 RMK A01 T02220172  RH  073%=      5-min Rain = 0
KTH1 250121Z 12013KT 22/17 A297 RMK A01 T02220172  RH  073%=      5-min Rain = 0
KTH1 250122Z 12013KT 22/17 A2969 RMK A01 T02220171  RH  073%=      5-min Rain = 0
KTH1 250123Z 13014G19KT 22/17 A2969 RMK A01 T02220170  RH  073%=      5-min Rain = 0
KTH1 250124Z 12014G20KT 22/17 A2969 RMK A01 T02220170  RH  072%=      5-min Rain = 0
KTH1 250125Z 12012G18KT 22/17 A2969 RMK A01 T02220169  RH  072%=      5-min Rain = 0
KTH1 250126Z 13013G19KT 22/17 A2969 RMK A01 T02220168  RH  072%=      5-min Rain = 0
KTH1 250127Z 13015G20KT 22/17 A2969 RMK A01 T02220168  RH  071%=      5-min Rain = 0
KTH1 250128Z 12015G21KT 22/17 A2968 RMK A01 T02220168  RH  071%=      5-min Rain = 0
KTH1 250129Z 12013G20KT 22/17 A2968 RMK A01 T02220168  RH  071%=      5-min Rain = 0
KTH1 250130Z 13014G19KT 22/17 A2968 RMK A01 T02220168  RH  071%=      5-min Rain = 0
KTH1 250131Z 12013KT 22/17 A2968 RMK A01 T02220168  RH  071%=      5-min Rain = 0
KTH1 250132Z 13011G16KT 22/17 A2968 RMK A01 T02220168  RH  071%=      5-min Rain = 0
KTH1 250133Z 13014KT 22/17 A2968 RMK A01 T02220168  RH  071%=      5-min Rain = 0
KTH1 250134Z 13014KT 22/17 A2968 RMK A01 T02220168  RH  071%=      5-min Rain = 0
KTH1 250135Z 13015G23KT 22/17 A2968 RMK A01 T02220167  RH  071%=      5-min Rain = 0
KTH1 250136Z 13015G20KT 22/17 A2968 RMK A01 T02220166  RH  071%=      5-min Rain = 0
KTH1 250137Z 13013G19KT 22/17 A2968 RMK A01 T02220166  RH  071%=      5-min Rain = 0
KTH1 250138Z 13016KT 22/17 A2969 RMK A01 T02220166  RH  070%=      5-min Rain = 0
KTH1 250139Z 13011G16KT 22/17 A2969 RMK A01 T02220166  RH  070%=      5-min Rain = 0
KTH1 250140Z 12014G19KT 22/17 A2969 RMK A01 T02220166  RH  070%=      5-min Rain = 0
KTH1 250141Z 13011G19KT 22/17 A2969 RMK A01 T02220166  RH  070%=      5-min Rain = 0
KTH1 250142Z 13015KT 22/17 A297 RMK A01 T02220166  RH  070%=      5-min Rain = 0
KTH1 250143Z 13012G17KT 22/17 A297 RMK A01 T02220165  RH  070%=      5-min Rain = 0
KTH1 250144Z 13017G22KT 22/17 A297 RMK A01 T02220165  RH  070%=      5-min Rain = 0
KTH1 250145Z 12014G20KT 22/16 A297 RMK A01 T02220164  RH  069%=      5-min Rain = 0
KTH1 250146Z 12013G20KT 22/17 A297 RMK A01 T02230165  RH  070%=      5-min Rain = 0
KTH1 250147Z 13012G19KT 22/16 A297 RMK A01 T02230164  RH  069%=      5-min Rain = 0
KTH1 250148Z 13011KT 22/16 A297 RMK A01 T02230164  RH  069%=      5-min Rain = 0
KTH1 250149Z 12014G20KT 22/16 A2969 RMK A01 T02230164  RH  069%=      5-min Rain = 0
KTH1 250150Z 13015G23KT 22/16 A2969 RMK A01 T02230163  RH  068%=      5-min Rain = 0
KTH1 250151Z 13017G23KT 22/16 A2969 RMK A01 T02230161  RH  068%=      5-min Rain = 0
KTH1 250152Z 12017G25KT 22/16 A2969 RMK A01 T02240161  RH  068%=      5-min Rain = 0
KTH1 250153Z 12013G20KT 22/16 A2969 RMK A01 T02240161  RH  068%=      5-min Rain = 0
KTH1 250154Z 12014G20KT 22/16 A2969 RMK A01 T02230161  RH  068%=      5-min Rain = 0
KTH1 250155Z 13014G19KT 22/16 A2969 RMK A01 T02240161  RH  068%=      5-min Rain = 0
KTH1 250156Z 13016G21KT 22/16 A2969 RMK A01 T02240161  RH  068%=      5-min Rain = 0
KTH1 250157Z 13014KT 22/16 A2969 RMK A01 T02240161  RH  068%=      5-min Rain = 0
KTH1 250158Z 13014G19KT 22/16 A2969 RMK A01 T02240161  RH  068%=      5-min Rain = 0
KTH1 250159Z 14012KT 22/16 A2969 RMK A01 T02230161  RH  068%=      5-min Rain = 0
KTH1 250200Z 14014KT 22/16 A2969 RMK A01 T02240162  RH  068%=      5-min Rain = 0
KTH1 250201Z 14015KT 22/16 A2969 RMK A01 T02240161  RH  068%=      5-min Rain = 0
KTH1 250202Z 14012G17KT 22/16 A2969 RMK A01 T02240161  RH  068%=      5-min Rain = 0
KTH1 250203Z 14016G24KT 22/16 A2969 RMK A01 T02240161  RH  068%=      5-min Rain = 0
KTH1 250204Z 14014G19KT 22/16 A2969 RMK A01 T02240161  RH  068%=      5-min Rain = 0
KTH1 250205Z 14017KT 22/16 A2969 RMK A01 T02230161  RH  068%=      5-min Rain = 0
KTH1 250206Z 14016G24KT 22/16 A2969 RMK A01 T02230161  RH  068%=      5-min Rain = 0
KTH1 250207Z 15013KT 22/16 A2969 RMK A01 T02240161  RH  068%=      5-min Rain = 0
KTH1 250208Z 15016KT 22/16 A2969 RMK A01 T02240162  RH  068%=      5-min Rain = 0
KTH1 250209Z 15014KT 22/16 A2969 RMK A01 T02230161  RH  068%=      5-min Rain = 0
KTH1 250210Z 15012KT 22/16 A2969 RMK A01 T02240162  RH  068%=      5-min Rain = 0
KTH1 250211Z 15014G19KT 22/16 A2969 RMK A01 T02230162  RH  068%=      5-min Rain = 0
KTH1 250212Z 15013KT 22/16 A2969 RMK A01 T02230162  RH  068%=      5-min Rain = 0
KTH1 250213Z 15014KT 22/16 A2969 RMK A01 T02230163  RH  068%=      5-min Rain = 0
KTH1 250214Z 15015G21KT 22/16 A2969 RMK A01 T02230162  RH  069%=      5-min Rain = 0
KTH1 250215Z 14013KT 22/16 A297 RMK A01 T02230163  RH  069%=      5-min Rain = 0
KTH1 250216Z 14014G19KT 22/16 A297 RMK A01 T02230163  RH  069%=      5-min Rain = 0
KTH1 250217Z 14014G21KT 22/16 A297 RMK A01 T02220164  RH  069%=      5-min Rain = 0
KTH1 250218Z 15015KT 22/16 A297 RMK A01 T02220164  RH  069%=      5-min Rain = 0
KTH1 250219Z 15013G19KT 22/16 A297 RMK A01 T02220164  RH  070%=      5-min Rain = 0
KTH1 250220Z 15016G22KT 22/17 A297 RMK A01 T02230165  RH  070%=      5-min Rain = 0
KTH1 250221Z 15016KT 22/16 A297 RMK A01 T02220164  RH  070%=      5-min Rain = 0
KTH1 250222Z 15015G20KT 22/16 A297 RMK A01 T02220164  RH  070%=      5-min Rain = 0
KTH1 250223Z 14016G21KT 22/17 A297 RMK A01 T02220165  RH  070%=      5-min Rain = 0
KTH1 250224Z 15016G22KT 22/17 A297 RMK A01 T02220165  RH  070%=      5-min Rain = 0
KTH1 250225Z 15014G19KT 22/17 A297 RMK A01 T02220165  RH  070%=      5-min Rain = 0
KTH1 250226Z 14015G22KT 22/17 A2971 RMK A01 T02220165  RH  070%=      5-min Rain = 0
KTH1 250227Z 15016G21KT 22/17 A2971 RMK A01 T02220166  RH  071%=      5-min Rain = 0
KTH1 250228Z 15012KT 22/17 A2971 RMK A01 T02210166  RH  071%=      5-min Rain = 0
KTH1 250229Z 14016G24KT 22/17 A2971 RMK A01 T02210166  RH  071%=      5-min Rain = 0
KTH1 250230Z 15017G25KT 22/17 A2971 RMK A01 T02210167  RH  071%=      5-min Rain = 0
KTH1 250231Z 15017KT 22/17 A2971 RMK A01 T02210167  RH  071%=      5-min Rain = 0
KTH1 250232Z 15016G22KT 22/17 A2972 RMK A01 T02200167  RH  072%=      5-min Rain = 0
KTH1 250233Z 14017G22KT 22/17 A2972 RMK A01 T02200167  RH  072%=      5-min Rain = 0
KTH1 250234Z 14018G23KT 22/17 A2973 RMK A01 T02200168  RH  072%=      5-min Rain = 0
KTH1 250235Z 14014G21KT 22/17 A2973 RMK A01 T02200168  RH  072%=      5-min Rain = 0
KTH1 250236Z 14013G19KT 22/17 A2973 RMK A01 T02200170  RH  073%=      5-min Rain = 0
KTH1 250237Z 15015G20KT 22/17 A2974 RMK A01 T02200171  RH  074%=      5-min Rain = 0
KTH1 250238Z 14015KT 22/17 A2974 RMK A01 T02190171  RH  074%=      5-min Rain = 0
KTH1 250239Z 14018G24KT 22/17 A2974 RMK A01 T02190172  RH  075%=      5-min Rain = 0
KTH1 250240Z 14015G22KT 22/17 A2974 RMK A01 T02180173  RH  076%=      5-min Rain = 0
KTH1 250241Z 14016KT 22/17 A2974 RMK A01 T02180174  RH  076%=      5-min Rain = 0
KTH1 250242Z 15019G27KT 22/17 A2974 RMK A01 T02170174  RH  076%=      5-min Rain = 0
KTH1 250243Z 14017G24KT 22/17 A2975 RMK A01 T02170174  RH  077%=      5-min Rain = 0
KTH1 250244Z 14016G23KT 22/17 A2975 RMK A01 T02160174  RH  077%=      5-min Rain = 0
KTH1 250245Z 15017KT 22/18 A2975 RMK A01 T02160175  RH  077%=      5-min Rain = 0
KTH1 250246Z 14015G21KT 22/18 A2975 RMK A01 T02150176  RH  078%=      5-min Rain = 0
KTH1 250247Z 13016G22KT 22/18 A2975 RMK A01 T02150176  RH  079%=      5-min Rain = 0
KTH1 250248Z 13013G18KT 22/18 A2975 RMK A01 T02150177  RH  079%=      5-min Rain = 0
KTH1 250249Z 14020G30KT 21/18 A2975 RMK A01 T02140178  RH  079%=      5-min Rain = 0
KTH1 250250Z 14019G27KT 21/18 A2975 RMK A01 T02140178  RH  080%=      5-min Rain = 0
KTH1 250251Z 14021G28KT 21/18 A2975 RMK A01 T02130179  RH  081%=      5-min Rain = 0
KTH1 250252Z 14017G24KT 21/18 A2975 RMK A01 T02120180  RH  082%=      5-min Rain = 0
KTH1 250253Z 15018G23KT 21/18 A2975 RMK A01 T02110181  RH  083%=      5-min Rain = 0
KTH1 250254Z 15017G25KT 21/18 A2975 RMK A01 T02090180  RH  083%=      5-min Rain = 0
KTH1 250255Z 15016G23KT 21/18 A2975 RMK A01 T02090179  RH  083%=      5-min Rain = 0
KTH1 250256Z 15010G19KT 21/18 A2976 RMK A01 T02080179  RH  083%=      5-min Rain = 0
KTH1 250257Z 16012G18KT 21/18 A2976 RMK A01 T02080179  RH  083%=      5-min Rain = 0
KTH1 250258Z 18010G15KT 21/18 A2977 RMK A01 T02080178  RH  083%=      5-min Rain = 0
KTH1 250259Z 20010G15KT 21/18 A2978 RMK A01 T02070176  RH  082%=      5-min Rain = 0
KTH1 250300Z 19012G17KT 21/17 A2979 RMK A01 T02070173  RH  081%=      5-min Rain = 0
KTH1 250301Z 19011G18KT 21/17 A2979 RMK A01 T02070168  RH  078%=      5-min Rain = 0
KTH1 250302Z 20011KT 21/17 A298 RMK A01 T02080166  RH  077%=      5-min Rain = 0
KTH1 250303Z 23012KT 21/17 A2982 RMK A01 T02090170  RH  078%=      5-min Rain = 0
KTH1 250304Z 24012G18KT 21/18 A2982 RMK A01 T02090179  RH  083%=      5-min Rain = 0
KTH1 250305Z 24011G16KT 21/19 A2982 RMK A01 T02110185  RH  085%=      5-min Rain = 0
KTH1 250306Z 23011KT 21/19 A2982 RMK A01 T02120185  RH  084%=      5-min Rain = 0
KTH1 250307Z 23011G16KT 21/18 A2982 RMK A01 T02120183  RH  084%=      5-min Rain = 0
KTH1 250308Z 21010G15KT 21/18 A2981 RMK A01 T02120181  RH  082%=      5-min Rain = 0
KTH1 250309Z 21013G18KT 21/18 A2981 RMK A01 T02120180  RH  082%=      5-min Rain = 0
KTH1 250310Z 20010KT 21/18 A2981 RMK A01 T02130180  RH  081%=      5-min Rain = 0
KTH1 250311Z 21012G17KT 21/18 A2981 RMK A01 T02130180  RH  081%=      5-min Rain = 0
KTH1 250312Z 21010G17KT 21/18 A2981 RMK A01 T02130180  RH  081%=      5-min Rain = 0
KTH1 250313Z 19009G14KT 21/18 A2981 RMK A01 T02130180  RH  081%=      5-min Rain = 0
KTH1 250314Z 19010KT 21/18 A2981 RMK A01 T02130181  RH  082%=      5-min Rain = 0
KTH1 250315Z 19009KT 21/18 A2982 RMK A01 T02130182  RH  082%=      5-min Rain = 0
KTH1 250316Z 18009G14KT 21/18 A2982 RMK A01 T02130182  RH  083%=      5-min Rain = 0
KTH1 250317Z 18014KT 21/18 A2982 RMK A01 T02130182  RH  083%=      5-min Rain = 0
KTH1 250318Z 17009G14KT 21/18 A2981 RMK A01 T02130183  RH  083%=      5-min Rain = 0
KTH1 250319Z 19009G14KT 21/18 A2981 RMK A01 T02120183  RH  083%=      5-min Rain = 0
KTH1 250320Z 19011KT 21/18 A2981 RMK A01 T02120184  RH  084%=      5-min Rain = 0
KTH1 250321Z 19010KT 21/18 A2981 RMK A01 T02110184  RH  084%=      5-min Rain = 0
KTH1 250322Z 19009KT 21/18 A2981 RMK A01 T02110184  RH  085%=      5-min Rain = 0
KTH1 250323Z 19009KT 21/19 A2981 RMK A01 T02100185  RH  085%=      5-min Rain = 0
KTH1 250324Z 18009KT 21/19 A2981 RMK A01 T02100185  RH  086%=      5-min Rain = 0
KTH1 250325Z 18009G15KT 21/19 A2981 RMK A01 T02100186  RH  086%=      5-min Rain = 0
KTH1 250326Z 18008KT 21/19 A2981 RMK A01 T02090186  RH  086%=      5-min Rain = 0
KTH1 250327Z 18010KT 21/19 A2981 RMK A01 T02090186  RH  087%=      5-min Rain = 0
KTH1 250328Z 17008KT 21/19 A2981 RMK A01 T02080186  RH  087%=      5-min Rain = 0
KTH1 250329Z 17009G14KT 21/19 A2981 RMK A01 T02080186  RH  087%=      5-min Rain = 0
KTH1 250330Z 17008G14KT 21/19 A2981 RMK A01 T02080187  RH  088%=      5-min Rain = 0
KTH1 250331Z 18008KT 21/19 A2981 RMK A01 T02080187  RH  088%=      5-min Rain = 0
KTH1 250332Z 18008KT 21/19 A2982 RMK A01 T02080187  RH  088%=      5-min Rain = 0
KTH1 250333Z 19007KT 21/19 A2982 RMK A01 T02070187  RH  088%=      5-min Rain = 0
KTH1 250334Z 18007KT 21/19 A2982 RMK A01 T02070187  RH  088%=      5-min Rain = 0
KTH1 250335Z 19008KT 21/19 A2982 RMK A01 T02060187  RH  089%=      5-min Rain = 0
KTH1 250336Z 18006KT 21/19 A2982 RMK A01 T02060187  RH  089%=      5-min Rain = 0
KTH1 250337Z 20006KT 21/19 A2982 RMK A01 T02050187  RH  089%=      5-min Rain = 0
KTH1 250338Z 19007KT 21/19 A2982 RMK A01 T02050187  RH  089%=      5-min Rain = 0
KTH1 250339Z 21006KT 20/19 A2982 RMK A01 T02040187  RH  090%=      5-min Rain = 0
KTH1 250340Z 21009KT 20/19 A2982 RMK A01 T02030188  RH  091%=      5-min Rain = 0
KTH1 250341Z 23008KT 20/19 A2982 RMK A01 T02030187  RH  091%=      5-min Rain = 0
KTH1 250342Z 22007KT 20/19 A2982 RMK A01 T02020186  RH  090%=      5-min Rain = 0
KTH1 250343Z 21008G13KT 20/18 A2982 RMK A01 T02010183  RH  089%=      5-min Rain = 0
KTH1 250344Z 22010KT 20/18 A2982 RMK A01 T02000177  RH  087%=      5-min Rain = 0
KTH1 250345Z 22007KT 20/17 A2983 RMK A01 T01990173  RH  085%=      5-min Rain = 0
KTH1 250346Z 22010KT 20/17 A2983 RMK A01 T01980171  RH  084%=      5-min Rain = 0
KTH1 250347Z 23008KT 20/17 A2983 RMK A01 T01980168  RH  083%=      5-min Rain = 0
KTH1 250348Z 23007KT 20/17 A2983 RMK A01 T01980169  RH  084%=      5-min Rain = 0
KTH1 250349Z 24009KT 20/17 A2983 RMK A01 T01970170  RH  084%=      5-min Rain = 0
KTH1 250350Z 23011KT 20/17 A2983 RMK A01 T01960168  RH  084%=      5-min Rain = 0.01
KTH1 250351Z 23010KT 20/17 A2982 RMK A01 T01950167  RH  084%=      5-min Rain = 0
KTH1 250352Z 24008KT 20/17 A2982 RMK A01 T01950168  RH  085%=      5-min Rain = 0
KTH1 250353Z 23008KT 19/17 A2982 RMK A01 T01940169  RH  086%=      5-min Rain = 0
KTH1 250354Z 23007KT 19/17 A2982 RMK A01 T01930168  RH  085%=      5-min Rain = 0
KTH1 250355Z 23008KT 19/17 A2982 RMK A01 T01920169  RH  087%=      5-min Rain = 0
KTH1 250356Z 23008KT 19/17 A2982 RMK A01 T01910168  RH  087%=      5-min Rain = 0
KTH1 250357Z 23009KT 19/17 A2982 RMK A01 T01900169  RH  088%=      5-min Rain = 0.01
KTH1 250358Z 24008KT 19/17 A2982 RMK A01 T01890169  RH  088%=      5-min Rain = 0
KTH1 250359Z 24008KT 19/17 A2982 RMK A01 T01890170  RH  089%=      5-min Rain = 0
KTH1 250400Z 25007KT 19/17 A2982 RMK A01 T01880170  RH  089%=      5-min Rain = 0
KTH1 250401Z 24011KT 19/17 A2982 RMK A01 T01880172  RH  090%=      5-min Rain = 0
KTH1 250402Z 24011KT 19/17 A2982 RMK A01 T01890171  RH  089%=      5-min Rain = 0
KTH1 250403Z 25008KT 19/17 A2983 RMK A01 T01890169  RH  088%=      5-min Rain = 0.01
KTH1 250404Z 23009KT 19/17 A2983 RMK A01 T01890170  RH  089%=      5-min Rain = 0
KTH1 250405Z 24008KT 19/17 A2983 RMK A01 T01890169  RH  088%=      5-min Rain = 0
KTH1 250406Z 25007KT 19/17 A2984 RMK A01 T01890168  RH  088%=      5-min Rain = 0
KTH1 250407Z 24007KT 19/17 A2984 RMK A01 T01890169  RH  088%=      5-min Rain = 0
KTH1 250408Z 25003KT 19/17 A2984 RMK A01 T01890170  RH  089%=      5-min Rain = 0.01
KTH1 250409Z 24004KT 19/17 A2984 RMK A01 T01880171  RH  090%=      5-min Rain = 0
KTH1 250410Z 24004KT 19/17 A2984 RMK A01 T01870170  RH  090%=      5-min Rain = 0
KTH1 250411Z 22004KT 19/17 A2985 RMK A01 T01870170  RH  090%=      5-min Rain = 0
KTH1 250412Z 22005KT 19/17 A2985 RMK A01 T01860170  RH  090%=      5-min Rain = 0
KTH1 250413Z 22006KT 19/17 A2985 RMK A01 T01850170  RH  091%=      5-min Rain = 0
KTH1 250414Z 22005KT 18/17 A2985 RMK A01 T01840170  RH  091%=      5-min Rain = 0
KTH1 250415Z 22005KT 18/17 A2985 RMK A01 T01830170  RH  092%=      5-min Rain = 0
KTH1 250416Z 23005KT 18/17 A2985 RMK A01 T01830170  RH  092%=      5-min Rain = 0.01
KTH1 250417Z 23006KT 18/17 A2984 RMK A01 T01820169  RH  092%=      5-min Rain = 0
KTH1 250418Z 23006KT 18/17 A2984 RMK A01 T01820169  RH  092%=      5-min Rain = 0
KTH1 250419Z 23006KT 18/17 A2984 RMK A01 T01820169  RH  093%=      5-min Rain = 0
KTH1 250420Z 23007KT 18/17 A2984 RMK A01 T01810169  RH  093%=      5-min Rain = 0
KTH1 250421Z 23008KT 18/17 A2984 RMK A01 T01810168  RH  093%=      5-min Rain = 0.01
KTH1 250422Z 24008KT 18/17 A2984 RMK A01 T01800169  RH  093%=      5-min Rain = 0
KTH1 250423Z 25008KT 18/17 A2984 RMK A01 T01810170  RH  093%=      5-min Rain = 0
KTH1 250424Z 26009KT 18/17 A2984 RMK A01 T01820174  RH  095%=      5-min Rain = 0
KTH1 250425Z 27008KT 18/18 A2984 RMK A01 T01840178  RH  096%=      5-min Rain = 0
KTH1 250426Z 28008KT 19/18 A2984 RMK A01 T01860181  RH  097%=      5-min Rain = 0.01
KTH1 250427Z 28009KT 19/18 A2984 RMK A01 T01870181  RH  097%=      5-min Rain = 0
KTH1 250428Z 27009KT 19/18 A2984 RMK A01 T01870181  RH  096%=      5-min Rain = 0
KTH1 250429Z 27009KT 19/18 A2984 RMK A01 T01870179  RH  095%=      5-min Rain = 0
KTH1 250430Z 27009KT 19/18 A2985 RMK A01 T01860178  RH  095%=      5-min Rain = 0
KTH1 250431Z 28009KT 19/18 A2984 RMK A01 T01870179  RH  095%=      5-min Rain = 0
KTH1 250432Z 28009KT 19/18 A2985 RMK A01 T01870179  RH  095%=      5-min Rain = 0
KTH1 250433Z 28010KT 19/18 A2985 RMK A01 T01880180  RH  095%=      5-min Rain = 0.01
KTH1 250434Z 28011G17KT 19/18 A2984 RMK A01 T01880180  RH  095%=      5-min Rain = 0
KTH1 250435Z 27014KT 19/18 A2984 RMK A01 T01880177  RH  093%=      5-min Rain = 0
KTH1 250436Z 29013KT 19/18 A2984 RMK A01 T01880177  RH  093%=      5-min Rain = 0
KTH1 250437Z 29012G18KT 19/18 A2984 RMK A01 T01880178  RH  094%=      5-min Rain = 0
KTH1 250438Z 29015KT 19/18 A2984 RMK A01 T01880179  RH  094%=      5-min Rain = 0
KTH1 250439Z 31016G22KT 19/18 A2985 RMK A01 T01880179  RH  094%=      5-min Rain = 0
KTH1 250440Z 31015G20KT 19/18 A2985 RMK A01 T01880181  RH  095%=      5-min Rain = 0.01
KTH1 250441Z 31015KT 19/18 A2985 RMK A01 T01880181  RH  096%=      5-min Rain = 0
KTH1 250442Z 32013KT 19/18 A2985 RMK A01 T01880180  RH  095%=      5-min Rain = 0
KTH1 250443Z 32015KT 19/18 A2985 RMK A01 T01870180  RH  096%=      5-min Rain = 0
KTH1 250444Z 32015KT 19/18 A2985 RMK A01 T01860180  RH  096%=      5-min Rain = 0
KTH1 250445Z 32014G20KT 19/18 A2985 RMK A01 T01860179  RH  096%=      5-min Rain = 0
KTH1 250446Z 33011G17KT 19/18 A2986 RMK A01 T01850177  RH  095%=      5-min Rain = 0
KTH1 250447Z 33009G15KT 18/18 A2986 RMK A01 T01840177  RH  095%=      5-min Rain = 0
KTH1 250448Z 33012G17KT 18/18 A2986 RMK A01 T01830176  RH  096%=      5-min Rain = 0
KTH1 250449Z 33014G23KT 18/18 A2986 RMK A01 T01830175  RH  096%=      5-min Rain = 0
KTH1 250450Z 33013G18KT 18/18 A2986 RMK A01 T01820175  RH  096%=      5-min Rain = 0
KTH1 250451Z 33012G21KT 18/18 A2986 RMK A01 T01810175  RH  096%=      5-min Rain = 0
KTH1 250452Z 33015KT 18/18 A2986 RMK A01 T01810175  RH  096%=      5-min Rain = 0.01
KTH1 250453Z 33009G16KT 18/18 A2987 RMK A01 T01810175  RH  096%=      5-min Rain = 0
KTH1 250454Z 34011G16KT 18/18 A2987 RMK A01 T01810175  RH  097%=      5-min Rain = 0
KTH1 250455Z 35012G17KT 18/18 A2987 RMK A01 T01800175  RH  097%=      5-min Rain = 0
KTH1 250456Z 34011KT 18/18 A2987 RMK A01 T01800175  RH  097%=      5-min Rain = 0
KTH1 250457Z 35012G17KT 18/17 A2987 RMK A01 T01800174  RH  096%=      5-min Rain = 0
KTH1 250458Z 35013G20KT 18/17 A2987 RMK A01 T01800173  RH  096%=      5-min Rain = 0
KTH1 250459Z 36010G15KT 18/17 A2988 RMK A01 T01790172  RH  095%=      5-min Rain = 0

Page generated in 0.113 seconds.